<?xml version="1.0" encoding="UTF-8" standalone="no" ?>
<gpx xmlns="http://www.topografix.com/GPX/1/1" xmlns:xsi="http://www.w3.org/2001/XMLSchema-instance" xsi:schemaLocation="http://www.topografix.com/GPX/1/1 http://www.topografix.com/GPX/1/1/gpx.xsd" version="1.1" creator="VisuGPX - https://www.visugpx.com">
  <metadata>
    <name>Gournay Dieppe</name>
    <desc><![CDATA[Route Aulnay Dieppe

hub03gr]]></desc>
  </metadata>
  <trk>
    <name><![CDATA[Toaster Course]]></name>
    <trkseg>
      <trkpt lat="49.46511" lon="1.96502">
        <ele>156</ele>
        <time>2011-02-25T00:00:00Z</time>
      </trkpt>
      <trkpt lat="49.4654" lon="1.96484">
        <ele>155</ele>
        <time>2011-02-25T00:00:04Z</time>
      </trkpt>
      <trkpt lat="49.46576" lon="1.96476">
        <ele>155</ele>
        <time>2011-02-25T00:00:09Z</time>
      </trkpt>
      <trkpt lat="49.46646" lon="1.96474">
        <ele>155</ele>
        <time>2011-02-25T00:00:18Z</time>
      </trkpt>
      <trkpt lat="49.46656" lon="1.96467">
        <ele>155</ele>
        <time>2011-02-25T00:00:20Z</time>
      </trkpt>
      <trkpt lat="49.47681" lon="1.95391">
        <ele>171</ele>
        <time>2011-02-25T00:03:44Z</time>
      </trkpt>
      <trkpt lat="49.47707" lon="1.95345">
        <ele>171</ele>
        <time>2011-02-25T00:03:51Z</time>
      </trkpt>
      <trkpt lat="49.47746" lon="1.95252">
        <ele>173</ele>
        <time>2011-02-25T00:04:03Z</time>
      </trkpt>
      <trkpt lat="49.47813" lon="1.95143">
        <ele>171</ele>
        <time>2011-02-25T00:04:16Z</time>
      </trkpt>
      <trkpt lat="49.47839" lon="1.9497">
        <ele>174</ele>
        <time>2011-02-25T00:04:39Z</time>
      </trkpt>
      <trkpt lat="49.4786" lon="1.94916">
        <ele>172</ele>
        <time>2011-02-25T00:04:44Z</time>
      </trkpt>
      <trkpt lat="49.47939" lon="1.94768">
        <ele>168</ele>
        <time>2011-02-25T00:05:01Z</time>
      </trkpt>
      <trkpt lat="49.48022" lon="1.94624">
        <ele>163</ele>
        <time>2011-02-25T00:05:18Z</time>
      </trkpt>
      <trkpt lat="49.48628" lon="1.93596">
        <ele>147</ele>
        <time>2011-02-25T00:07:18Z</time>
      </trkpt>
      <trkpt lat="49.4867" lon="1.93534">
        <ele>146</ele>
        <time>2011-02-25T00:07:26Z</time>
      </trkpt>
      <trkpt lat="49.48676" lon="1.93513">
        <ele>146</ele>
        <time>2011-02-25T00:07:28Z</time>
      </trkpt>
      <trkpt lat="49.48673" lon="1.93335">
        <ele>145</ele>
        <time>2011-02-25T00:07:43Z</time>
      </trkpt>
      <trkpt lat="49.48685" lon="1.93233">
        <ele>146</ele>
        <time>2011-02-25T00:07:56Z</time>
      </trkpt>
      <trkpt lat="49.48681" lon="1.93204">
        <ele>146</ele>
        <time>2011-02-25T00:07:59Z</time>
      </trkpt>
      <trkpt lat="49.48649" lon="1.93136">
        <ele>148</ele>
        <time>2011-02-25T00:08:09Z</time>
      </trkpt>
      <trkpt lat="49.48631" lon="1.93107">
        <ele>148</ele>
        <time>2011-02-25T00:08:13Z</time>
      </trkpt>
      <trkpt lat="49.48624" lon="1.93086">
        <ele>148</ele>
        <time>2011-02-25T00:08:15Z</time>
      </trkpt>
      <trkpt lat="49.48577" lon="1.92871">
        <ele>149</ele>
        <time>2011-02-25T00:08:37Z</time>
      </trkpt>
      <trkpt lat="49.4857" lon="1.92824">
        <ele>148</ele>
        <time>2011-02-25T00:08:41Z</time>
      </trkpt>
      <trkpt lat="49.48503" lon="1.92547">
        <ele>145</ele>
        <time>2011-02-25T00:09:07Z</time>
      </trkpt>
      <trkpt lat="49.4841" lon="1.92132">
        <ele>159</ele>
        <time>2011-02-25T00:10:19Z</time>
      </trkpt>
      <trkpt lat="49.48397" lon="1.92005">
        <ele>162</ele>
        <time>2011-02-25T00:10:38Z</time>
      </trkpt>
      <trkpt lat="49.48383" lon="1.91805">
        <ele>168</ele>
        <time>2011-02-25T00:11:09Z</time>
      </trkpt>
      <trkpt lat="49.48374" lon="1.9176">
        <ele>168</ele>
        <time>2011-02-25T00:11:14Z</time>
      </trkpt>
      <trkpt lat="49.48346" lon="1.91683">
        <ele>169</ele>
        <time>2011-02-25T00:11:24Z</time>
      </trkpt>
      <trkpt lat="49.48317" lon="1.91587">
        <ele>171</ele>
        <time>2011-02-25T00:11:37Z</time>
      </trkpt>
      <trkpt lat="49.4831" lon="1.91545">
        <ele>171</ele>
        <time>2011-02-25T00:11:42Z</time>
      </trkpt>
      <trkpt lat="49.48291" lon="1.91306">
        <ele>176</ele>
        <time>2011-02-25T00:12:14Z</time>
      </trkpt>
      <trkpt lat="49.48256" lon="1.91141">
        <ele>180</ele>
        <time>2011-02-25T00:12:38Z</time>
      </trkpt>
      <trkpt lat="49.48254" lon="1.90894">
        <ele>184</ele>
        <time>2011-02-25T00:13:09Z</time>
      </trkpt>
      <trkpt lat="49.48247" lon="1.90811">
        <ele>185</ele>
        <time>2011-02-25T00:13:19Z</time>
      </trkpt>
      <trkpt lat="49.48235" lon="1.90732">
        <ele>186</ele>
        <time>2011-02-25T00:13:28Z</time>
      </trkpt>
      <trkpt lat="49.48215" lon="1.90638">
        <ele>184</ele>
        <time>2011-02-25T00:13:37Z</time>
      </trkpt>
      <trkpt lat="49.48132" lon="1.90318">
        <ele>178</ele>
        <time>2011-02-25T00:14:07Z</time>
      </trkpt>
      <trkpt lat="49.48059" lon="1.90066">
        <ele>172</ele>
        <time>2011-02-25T00:14:31Z</time>
      </trkpt>
      <trkpt lat="49.48038" lon="1.89234">
        <ele>168</ele>
        <time>2011-02-25T00:15:43Z</time>
      </trkpt>
      <trkpt lat="49.48029" lon="1.89033">
        <ele>178</ele>
        <time>2011-02-25T00:16:24Z</time>
      </trkpt>
      <trkpt lat="49.48005" lon="1.88758">
        <ele>184</ele>
        <time>2011-02-25T00:17:03Z</time>
      </trkpt>
      <trkpt lat="49.47991" lon="1.88647">
        <ele>181</ele>
        <time>2011-02-25T00:17:13Z</time>
      </trkpt>
      <trkpt lat="49.4781" lon="1.87864">
        <ele>160</ele>
        <time>2011-02-25T00:18:25Z</time>
      </trkpt>
      <trkpt lat="49.47791" lon="1.87817">
        <ele>157</ele>
        <time>2011-02-25T00:18:30Z</time>
      </trkpt>
      <trkpt lat="49.47704" lon="1.87708">
        <ele>150</ele>
        <time>2011-02-25T00:18:45Z</time>
      </trkpt>
      <trkpt lat="49.47658" lon="1.87641">
        <ele>146</ele>
        <time>2011-02-25T00:18:53Z</time>
      </trkpt>
      <trkpt lat="49.47634" lon="1.87601">
        <ele>144</ele>
        <time>2011-02-25T00:18:58Z</time>
      </trkpt>
      <trkpt lat="49.47614" lon="1.87554">
        <ele>142</ele>
        <time>2011-02-25T00:19:03Z</time>
      </trkpt>
      <trkpt lat="49.47608" lon="1.87512">
        <ele>140</ele>
        <time>2011-02-25T00:19:06Z</time>
      </trkpt>
      <trkpt lat="49.47584" lon="1.8709">
        <ele>128</ele>
        <time>2011-02-25T00:19:43Z</time>
      </trkpt>
      <trkpt lat="49.47575" lon="1.86853">
        <ele>123</ele>
        <time>2011-02-25T00:20:04Z</time>
      </trkpt>
      <trkpt lat="49.47577" lon="1.86828">
        <ele>122</ele>
        <time>2011-02-25T00:20:06Z</time>
      </trkpt>
      <trkpt lat="49.47601" lon="1.8671">
        <ele>119</ele>
        <time>2011-02-25T00:20:17Z</time>
      </trkpt>
      <trkpt lat="49.47662" lon="1.8649">
        <ele>123</ele>
        <time>2011-02-25T00:20:47Z</time>
      </trkpt>
      <trkpt lat="49.47689" lon="1.86364">
        <ele>125</ele>
        <time>2011-02-25T00:21:04Z</time>
      </trkpt>
      <trkpt lat="49.47692" lon="1.86306">
        <ele>126</ele>
        <time>2011-02-25T00:21:11Z</time>
      </trkpt>
      <trkpt lat="49.47684" lon="1.86251">
        <ele>129</ele>
        <time>2011-02-25T00:21:23Z</time>
      </trkpt>
      <trkpt lat="49.47655" lon="1.86131">
        <ele>136</ele>
        <time>2011-02-25T00:21:51Z</time>
      </trkpt>
      <trkpt lat="49.47645" lon="1.8607">
        <ele>136</ele>
        <time>2011-02-25T00:21:58Z</time>
      </trkpt>
      <trkpt lat="49.47644" lon="1.8598">
        <ele>138</ele>
        <time>2011-02-25T00:22:09Z</time>
      </trkpt>
      <trkpt lat="49.47657" lon="1.85884">
        <ele>139</ele>
        <time>2011-02-25T00:22:20Z</time>
      </trkpt>
      <trkpt lat="49.47682" lon="1.85809">
        <ele>140</ele>
        <time>2011-02-25T00:22:30Z</time>
      </trkpt>
      <trkpt lat="49.47699" lon="1.85775">
        <ele>140</ele>
        <time>2011-02-25T00:22:36Z</time>
      </trkpt>
      <trkpt lat="49.47858" lon="1.85494">
        <ele>149</ele>
        <time>2011-02-25T00:23:27Z</time>
      </trkpt>
      <trkpt lat="49.47925" lon="1.85349">
        <ele>155</ele>
        <time>2011-02-25T00:23:57Z</time>
      </trkpt>
      <trkpt lat="49.47957" lon="1.8524">
        <ele>156</ele>
        <time>2011-02-25T00:24:12Z</time>
      </trkpt>
      <trkpt lat="49.48299" lon="1.83931">
        <ele>177</ele>
        <time>2011-02-25T00:27:03Z</time>
      </trkpt>
      <trkpt lat="49.48334" lon="1.83845">
        <ele>177</ele>
        <time>2011-02-25T00:27:13Z</time>
      </trkpt>
      <trkpt lat="49.48403" lon="1.83728">
        <ele>179</ele>
        <time>2011-02-25T00:27:30Z</time>
      </trkpt>
      <trkpt lat="49.48422" lon="1.83688">
        <ele>179</ele>
        <time>2011-02-25T00:27:34Z</time>
      </trkpt>
      <trkpt lat="49.48496" lon="1.83496">
        <ele>179</ele>
        <time>2011-02-25T00:27:54Z</time>
      </trkpt>
      <trkpt lat="49.48529" lon="1.83362">
        <ele>180</ele>
        <time>2011-02-25T00:28:09Z</time>
      </trkpt>
      <trkpt lat="49.48532" lon="1.83336">
        <ele>180</ele>
        <time>2011-02-25T00:28:12Z</time>
      </trkpt>
      <trkpt lat="49.48531" lon="1.83196">
        <ele>182</ele>
        <time>2011-02-25T00:28:28Z</time>
      </trkpt>
      <trkpt lat="49.48541" lon="1.83163">
        <ele>182</ele>
        <time>2011-02-25T00:28:32Z</time>
      </trkpt>
      <trkpt lat="49.48673" lon="1.82792">
        <ele>188</ele>
        <time>2011-02-25T00:29:22Z</time>
      </trkpt>
      <trkpt lat="49.48957" lon="1.82039">
        <ele>190</ele>
        <time>2011-02-25T00:30:42Z</time>
      </trkpt>
      <trkpt lat="49.48982" lon="1.81958">
        <ele>189</ele>
        <time>2011-02-25T00:30:50Z</time>
      </trkpt>
      <trkpt lat="49.49005" lon="1.81762">
        <ele>188</ele>
        <time>2011-02-25T00:31:08Z</time>
      </trkpt>
      <trkpt lat="49.49011" lon="1.81682">
        <ele>188</ele>
        <time>2011-02-25T00:31:15Z</time>
      </trkpt>
      <trkpt lat="49.49021" lon="1.81445">
        <ele>188</ele>
        <time>2011-02-25T00:31:35Z</time>
      </trkpt>
      <trkpt lat="49.49019" lon="1.81243">
        <ele>189</ele>
        <time>2011-02-25T00:31:55Z</time>
      </trkpt>
      <trkpt lat="49.49" lon="1.80993">
        <ele>194</ele>
        <time>2011-02-25T00:32:29Z</time>
      </trkpt>
      <trkpt lat="49.48983" lon="1.80841">
        <ele>195</ele>
        <time>2011-02-25T00:32:45Z</time>
      </trkpt>
      <trkpt lat="49.48961" lon="1.80699">
        <ele>193</ele>
        <time>2011-02-25T00:32:57Z</time>
      </trkpt>
      <trkpt lat="49.48898" lon="1.80459">
        <ele>185</ele>
        <time>2011-02-25T00:33:20Z</time>
      </trkpt>
      <trkpt lat="49.48857" lon="1.80256">
        <ele>179</ele>
        <time>2011-02-25T00:33:38Z</time>
      </trkpt>
      <trkpt lat="49.48843" lon="1.80159">
        <ele>178</ele>
        <time>2011-02-25T00:33:47Z</time>
      </trkpt>
      <trkpt lat="49.48819" lon="1.79927">
        <ele>178</ele>
        <time>2011-02-25T00:34:07Z</time>
      </trkpt>
      <trkpt lat="49.48764" lon="1.79543">
        <ele>179</ele>
        <time>2011-02-25T00:34:44Z</time>
      </trkpt>
      <trkpt lat="49.4875" lon="1.79476">
        <ele>177</ele>
        <time>2011-02-25T00:34:50Z</time>
      </trkpt>
      <trkpt lat="49.48719" lon="1.7936">
        <ele>175</ele>
        <time>2011-02-25T00:35:01Z</time>
      </trkpt>
      <trkpt lat="49.48573" lon="1.78877">
        <ele>161</ele>
        <time>2011-02-25T00:35:47Z</time>
      </trkpt>
      <trkpt lat="49.48506" lon="1.78674">
        <ele>158</ele>
        <time>2011-02-25T00:36:07Z</time>
      </trkpt>
      <trkpt lat="49.48478" lon="1.78534">
        <ele>158</ele>
        <time>2011-02-25T00:36:19Z</time>
      </trkpt>
      <trkpt lat="49.48409" lon="1.78142">
        <ele>157</ele>
        <time>2011-02-25T00:36:55Z</time>
      </trkpt>
      <trkpt lat="49.4838" lon="1.78058">
        <ele>155</ele>
        <time>2011-02-25T00:37:03Z</time>
      </trkpt>
      <trkpt lat="49.48329" lon="1.7796">
        <ele>154</ele>
        <time>2011-02-25T00:37:14Z</time>
      </trkpt>
      <trkpt lat="49.48311" lon="1.7793">
        <ele>152</ele>
        <time>2011-02-25T00:37:17Z</time>
      </trkpt>
      <trkpt lat="49.48236" lon="1.77834">
        <ele>148</ele>
        <time>2011-02-25T00:37:30Z</time>
      </trkpt>
      <trkpt lat="49.48062" lon="1.7751">
        <ele>141</ele>
        <time>2011-02-25T00:38:07Z</time>
      </trkpt>
      <trkpt lat="49.48044" lon="1.77463">
        <ele>141</ele>
        <time>2011-02-25T00:38:12Z</time>
      </trkpt>
      <trkpt lat="49.48028" lon="1.77402">
        <ele>141</ele>
        <time>2011-02-25T00:38:19Z</time>
      </trkpt>
      <trkpt lat="49.48015" lon="1.77329">
        <ele>142</ele>
        <time>2011-02-25T00:38:26Z</time>
      </trkpt>
      <trkpt lat="49.47931" lon="1.77196">
        <ele>141</ele>
        <time>2011-02-25T00:38:42Z</time>
      </trkpt>
      <trkpt lat="49.47928" lon="1.77181">
        <ele>140</ele>
        <time>2011-02-25T00:38:44Z</time>
      </trkpt>
      <trkpt lat="49.47925" lon="1.7703">
        <ele>139</ele>
        <time>2011-02-25T00:38:57Z</time>
      </trkpt>
      <trkpt lat="49.47922" lon="1.7701">
        <ele>138</ele>
        <time>2011-02-25T00:38:59Z</time>
      </trkpt>
      <trkpt lat="49.47878" lon="1.76913">
        <ele>137</ele>
        <time>2011-02-25T00:39:09Z</time>
      </trkpt>
      <trkpt lat="49.47852" lon="1.7688">
        <ele>137</ele>
        <time>2011-02-25T00:39:13Z</time>
      </trkpt>
      <trkpt lat="49.4783" lon="1.7687">
        <ele>136</ele>
        <time>2011-02-25T00:39:17Z</time>
      </trkpt>
      <trkpt lat="49.47793" lon="1.7684">
        <ele>134</ele>
        <time>2011-02-25T00:39:22Z</time>
      </trkpt>
      <trkpt lat="49.47743" lon="1.76773">
        <ele>132</ele>
        <time>2011-02-25T00:39:31Z</time>
      </trkpt>
      <trkpt lat="49.4773" lon="1.76768">
        <ele>131</ele>
        <time>2011-02-25T00:39:33Z</time>
      </trkpt>
      <trkpt lat="49.47716" lon="1.76774">
        <ele>130</ele>
        <time>2011-02-25T00:39:35Z</time>
      </trkpt>
      <trkpt lat="49.47707" lon="1.7679">
        <ele>130</ele>
        <time>2011-02-25T00:39:37Z</time>
      </trkpt>
      <trkpt lat="49.47681" lon="1.7693">
        <ele>127</ele>
        <time>2011-02-25T00:39:49Z</time>
      </trkpt>
      <trkpt lat="49.4767" lon="1.76942">
        <ele>126</ele>
        <time>2011-02-25T00:39:51Z</time>
      </trkpt>
      <trkpt lat="49.47654" lon="1.76937">
        <ele>124</ele>
        <time>2011-02-25T00:39:53Z</time>
      </trkpt>
      <trkpt lat="49.47598" lon="1.7683">
        <ele>119</ele>
        <time>2011-02-25T00:40:05Z</time>
      </trkpt>
      <trkpt lat="49.47504" lon="1.76668">
        <ele>113</ele>
        <time>2011-02-25T00:40:24Z</time>
      </trkpt>
      <trkpt lat="49.47457" lon="1.76575">
        <ele>112</ele>
        <time>2011-02-25T00:40:34Z</time>
      </trkpt>
      <trkpt lat="49.47382" lon="1.76299">
        <ele>112</ele>
        <time>2011-02-25T00:41:00Z</time>
      </trkpt>
      <trkpt lat="49.47352" lon="1.762">
        <ele>110</ele>
        <time>2011-02-25T00:41:10Z</time>
      </trkpt>
      <trkpt lat="49.47346" lon="1.76168">
        <ele>110</ele>
        <time>2011-02-25T00:41:13Z</time>
      </trkpt>
      <trkpt lat="49.47344" lon="1.76107">
        <ele>109</ele>
        <time>2011-02-25T00:41:18Z</time>
      </trkpt>
      <trkpt lat="49.47357" lon="1.76038">
        <ele>109</ele>
        <time>2011-02-25T00:41:24Z</time>
      </trkpt>
      <trkpt lat="49.47399" lon="1.75902">
        <ele>109</ele>
        <time>2011-02-25T00:41:37Z</time>
      </trkpt>
      <trkpt lat="49.47432" lon="1.75695">
        <ele>107</ele>
        <time>2011-02-25T00:41:56Z</time>
      </trkpt>
      <trkpt lat="49.47578" lon="1.75163">
        <ele>104</ele>
        <time>2011-02-25T00:42:46Z</time>
      </trkpt>
      <trkpt lat="49.47604" lon="1.75106">
        <ele>103</ele>
        <time>2011-02-25T00:42:52Z</time>
      </trkpt>
      <trkpt lat="49.47804" lon="1.74739">
        <ele>102</ele>
        <time>2011-02-25T00:43:33Z</time>
      </trkpt>
      <trkpt lat="49.47863" lon="1.74483">
        <ele>98</ele>
        <time>2011-02-25T00:43:57Z</time>
      </trkpt>
      <trkpt lat="49.47898" lon="1.7436">
        <ele>96</ele>
        <time>2011-02-25T00:44:09Z</time>
      </trkpt>
      <trkpt lat="49.47996" lon="1.74236">
        <ele>95</ele>
        <time>2011-02-25T00:44:26Z</time>
      </trkpt>
      <trkpt lat="49.48156" lon="1.74053">
        <ele>98</ele>
        <time>2011-02-25T00:44:59Z</time>
      </trkpt>
      <trkpt lat="49.48157" lon="1.7405">
        <ele>98</ele>
        <time>2011-02-25T00:45:00Z</time>
      </trkpt>
      <trkpt lat="49.48153" lon="1.74046">
        <ele>98</ele>
        <time>2011-02-25T00:45:00Z</time>
      </trkpt>
      <trkpt lat="49.4816" lon="1.74034">
        <ele>98</ele>
        <time>2011-02-25T00:45:02Z</time>
      </trkpt>
      <trkpt lat="49.48182" lon="1.73921">
        <ele>98</ele>
        <time>2011-02-25T00:45:12Z</time>
      </trkpt>
      <trkpt lat="49.48198" lon="1.7384">
        <ele>98</ele>
        <time>2011-02-25T00:45:19Z</time>
      </trkpt>
      <trkpt lat="49.48215" lon="1.73787">
        <ele>97</ele>
        <time>2011-02-25T00:45:24Z</time>
      </trkpt>
      <trkpt lat="49.48224" lon="1.73766">
        <ele>97</ele>
        <time>2011-02-25T00:45:27Z</time>
      </trkpt>
      <trkpt lat="49.48233" lon="1.73745">
        <ele>97</ele>
        <time>2011-02-25T00:45:29Z</time>
      </trkpt>
      <trkpt lat="49.48338" lon="1.73589">
        <ele>97</ele>
        <time>2011-02-25T00:45:48Z</time>
      </trkpt>
      <trkpt lat="49.48361" lon="1.73584">
        <ele>96</ele>
        <time>2011-02-25T00:45:51Z</time>
      </trkpt>
      <trkpt lat="49.48354" lon="1.73551">
        <ele>96</ele>
        <time>2011-02-25T00:45:54Z</time>
      </trkpt>
      <trkpt lat="49.48344" lon="1.73507">
        <ele>96</ele>
        <time>2011-02-25T00:45:58Z</time>
      </trkpt>
      <trkpt lat="49.48335" lon="1.7347">
        <ele>96</ele>
        <time>2011-02-25T00:46:02Z</time>
      </trkpt>
      <trkpt lat="49.48419" lon="1.73379">
        <ele>95</ele>
        <time>2011-02-25T00:46:16Z</time>
      </trkpt>
      <trkpt lat="49.48428" lon="1.73336">
        <ele>94</ele>
        <time>2011-02-25T00:46:20Z</time>
      </trkpt>
      <trkpt lat="49.48431" lon="1.73323">
        <ele>94</ele>
        <time>2011-02-25T00:46:21Z</time>
      </trkpt>
      <trkpt lat="49.48435" lon="1.73303">
        <ele>94</ele>
        <time>2011-02-25T00:46:23Z</time>
      </trkpt>
      <trkpt lat="49.48489" lon="1.73049">
        <ele>92</ele>
        <time>2011-02-25T00:46:46Z</time>
      </trkpt>
      <trkpt lat="49.48494" lon="1.7303">
        <ele>92</ele>
        <time>2011-02-25T00:46:48Z</time>
      </trkpt>
      <trkpt lat="49.48496" lon="1.73019">
        <ele>92</ele>
        <time>2011-02-25T00:46:49Z</time>
      </trkpt>
      <trkpt lat="49.48519" lon="1.72922">
        <ele>92</ele>
        <time>2011-02-25T00:46:58Z</time>
      </trkpt>
      <trkpt lat="49.48566" lon="1.7271">
        <ele>93</ele>
        <time>2011-02-25T00:47:19Z</time>
      </trkpt>
      <trkpt lat="49.48606" lon="1.7273">
        <ele>94</ele>
        <time>2011-02-25T00:47:29Z</time>
      </trkpt>
      <trkpt lat="49.4864" lon="1.72722">
        <ele>96</ele>
        <time>2011-02-25T00:47:37Z</time>
      </trkpt>
      <trkpt lat="49.4866" lon="1.72712">
        <ele>97</ele>
        <time>2011-02-25T00:47:42Z</time>
      </trkpt>
      <trkpt lat="49.48682" lon="1.72694">
        <ele>97</ele>
        <time>2011-02-25T00:47:47Z</time>
      </trkpt>
      <trkpt lat="49.48806" lon="1.72552">
        <ele>102</ele>
        <time>2011-02-25T00:48:18Z</time>
      </trkpt>
      <trkpt lat="49.48858" lon="1.72505">
        <ele>102</ele>
        <time>2011-02-25T00:48:27Z</time>
      </trkpt>
      <trkpt lat="49.48896" lon="1.72468">
        <ele>103</ele>
        <time>2011-02-25T00:48:34Z</time>
      </trkpt>
      <trkpt lat="49.48931" lon="1.72426">
        <ele>103</ele>
        <time>2011-02-25T00:48:41Z</time>
      </trkpt>
      <trkpt lat="49.49007" lon="1.72297">
        <ele>104</ele>
        <time>2011-02-25T00:48:58Z</time>
      </trkpt>
      <trkpt lat="49.49085" lon="1.72199">
        <ele>107</ele>
        <time>2011-02-25T00:49:18Z</time>
      </trkpt>
      <trkpt lat="49.49206" lon="1.72031">
        <ele>107</ele>
        <time>2011-02-25T00:49:40Z</time>
      </trkpt>
      <trkpt lat="49.49292" lon="1.71874">
        <ele>108</ele>
        <time>2011-02-25T00:50:00Z</time>
      </trkpt>
      <trkpt lat="49.49327" lon="1.71813">
        <ele>108</ele>
        <time>2011-02-25T00:50:09Z</time>
      </trkpt>
      <trkpt lat="49.49359" lon="1.71777">
        <ele>109</ele>
        <time>2011-02-25T00:50:15Z</time>
      </trkpt>
      <trkpt lat="49.49387" lon="1.71756">
        <ele>109</ele>
        <time>2011-02-25T00:50:21Z</time>
      </trkpt>
      <trkpt lat="49.4953" lon="1.71686">
        <ele>114</ele>
        <time>2011-02-25T00:50:51Z</time>
      </trkpt>
      <trkpt lat="49.49621" lon="1.71626">
        <ele>117</ele>
        <time>2011-02-25T00:51:12Z</time>
      </trkpt>
      <trkpt lat="49.49704" lon="1.71571">
        <ele>119</ele>
        <time>2011-02-25T00:51:29Z</time>
      </trkpt>
      <trkpt lat="49.49721" lon="1.71559">
        <ele>119</ele>
        <time>2011-02-25T00:51:32Z</time>
      </trkpt>
      <trkpt lat="49.49833" lon="1.71492">
        <ele>120</ele>
        <time>2011-02-25T00:51:50Z</time>
      </trkpt>
      <trkpt lat="49.49946" lon="1.71415">
        <ele>121</ele>
        <time>2011-02-25T00:52:09Z</time>
      </trkpt>
      <trkpt lat="49.50132" lon="1.71264">
        <ele>125</ele>
        <time>2011-02-25T00:52:46Z</time>
      </trkpt>
      <trkpt lat="49.50233" lon="1.71179">
        <ele>125</ele>
        <time>2011-02-25T00:53:02Z</time>
      </trkpt>
      <trkpt lat="49.5024" lon="1.71158">
        <ele>126</ele>
        <time>2011-02-25T00:53:06Z</time>
      </trkpt>
      <trkpt lat="49.5024" lon="1.71158">
        <ele>126</ele>
        <time>2011-02-25T00:53:07Z</time>
      </trkpt>
      <trkpt lat="49.50254" lon="1.71118">
        <ele>126</ele>
        <time>2011-02-25T00:53:12Z</time>
      </trkpt>
      <trkpt lat="49.5031" lon="1.70949">
        <ele>128</ele>
        <time>2011-02-25T00:53:32Z</time>
      </trkpt>
      <trkpt lat="49.50313" lon="1.70897">
        <ele>127</ele>
        <time>2011-02-25T00:53:37Z</time>
      </trkpt>
      <trkpt lat="49.50312" lon="1.70747">
        <ele>125</ele>
        <time>2011-02-25T00:53:50Z</time>
      </trkpt>
      <trkpt lat="49.50316" lon="1.70708">
        <ele>124</ele>
        <time>2011-02-25T00:53:53Z</time>
      </trkpt>
      <trkpt lat="49.50325" lon="1.70664">
        <ele>124</ele>
        <time>2011-02-25T00:53:57Z</time>
      </trkpt>
      <trkpt lat="49.5034" lon="1.70617">
        <ele>124</ele>
        <time>2011-02-25T00:54:02Z</time>
      </trkpt>
      <trkpt lat="49.50425" lon="1.70431">
        <ele>124</ele>
        <time>2011-02-25T00:54:22Z</time>
      </trkpt>
      <trkpt lat="49.50442" lon="1.70394">
        <ele>124</ele>
        <time>2011-02-25T00:54:26Z</time>
      </trkpt>
      <trkpt lat="49.50451" lon="1.7034">
        <ele>124</ele>
        <time>2011-02-25T00:54:30Z</time>
      </trkpt>
      <trkpt lat="49.50459" lon="1.70286">
        <ele>124</ele>
        <time>2011-02-25T00:54:35Z</time>
      </trkpt>
      <trkpt lat="49.50481" lon="1.70247">
        <ele>123</ele>
        <time>2011-02-25T00:54:40Z</time>
      </trkpt>
      <trkpt lat="49.50527" lon="1.70177">
        <ele>123</ele>
        <time>2011-02-25T00:54:48Z</time>
      </trkpt>
      <trkpt lat="49.50628" lon="1.69935">
        <ele>123</ele>
        <time>2011-02-25T00:55:13Z</time>
      </trkpt>
      <trkpt lat="49.50636" lon="1.69919">
        <ele>122</ele>
        <time>2011-02-25T00:55:15Z</time>
      </trkpt>
      <trkpt lat="49.50644" lon="1.69904">
        <ele>122</ele>
        <time>2011-02-25T00:55:17Z</time>
      </trkpt>
      <trkpt lat="49.50703" lon="1.69705">
        <ele>122</ele>
        <time>2011-02-25T00:55:36Z</time>
      </trkpt>
      <trkpt lat="49.50724" lon="1.69639">
        <ele>121</ele>
        <time>2011-02-25T00:55:42Z</time>
      </trkpt>
      <trkpt lat="49.50772" lon="1.69477">
        <ele>120</ele>
        <time>2011-02-25T00:55:57Z</time>
      </trkpt>
      <trkpt lat="49.50922" lon="1.69155">
        <ele>124</ele>
        <time>2011-02-25T00:56:41Z</time>
      </trkpt>
      <trkpt lat="49.50992" lon="1.68995">
        <ele>125</ele>
        <time>2011-02-25T00:57:01Z</time>
      </trkpt>
      <trkpt lat="49.51003" lon="1.68971">
        <ele>125</ele>
        <time>2011-02-25T00:57:04Z</time>
      </trkpt>
      <trkpt lat="49.51041" lon="1.68891">
        <ele>126</ele>
        <time>2011-02-25T00:57:15Z</time>
      </trkpt>
      <trkpt lat="49.51069" lon="1.68832">
        <ele>127</ele>
        <time>2011-02-25T00:57:23Z</time>
      </trkpt>
      <trkpt lat="49.51359" lon="1.68213">
        <ele>138</ele>
        <time>2011-02-25T00:58:55Z</time>
      </trkpt>
      <trkpt lat="49.51437" lon="1.68048">
        <ele>135</ele>
        <time>2011-02-25T00:59:13Z</time>
      </trkpt>
      <trkpt lat="49.51437" lon="1.68048">
        <ele>135</ele>
        <time>2011-02-25T00:59:14Z</time>
      </trkpt>
      <trkpt lat="49.51518" lon="1.67874">
        <ele>128</ele>
        <time>2011-02-25T00:59:33Z</time>
      </trkpt>
      <trkpt lat="49.51527" lon="1.67854">
        <ele>127</ele>
        <time>2011-02-25T00:59:35Z</time>
      </trkpt>
      <trkpt lat="49.51617" lon="1.6774">
        <ele>121</ele>
        <time>2011-02-25T00:59:50Z</time>
      </trkpt>
      <trkpt lat="49.51658" lon="1.67671">
        <ele>119</ele>
        <time>2011-02-25T00:59:59Z</time>
      </trkpt>
      <trkpt lat="49.51691" lon="1.67631">
        <ele>119</ele>
        <time>2011-02-25T01:00:04Z</time>
      </trkpt>
      <trkpt lat="49.51734" lon="1.67617">
        <ele>118</ele>
        <time>2011-02-25T01:00:10Z</time>
      </trkpt>
      <trkpt lat="49.51947" lon="1.67452">
        <ele>114</ele>
        <time>2011-02-25T01:00:42Z</time>
      </trkpt>
      <trkpt lat="49.51991" lon="1.67411">
        <ele>114</ele>
        <time>2011-02-25T01:00:49Z</time>
      </trkpt>
      <trkpt lat="49.5209" lon="1.67302">
        <ele>114</ele>
        <time>2011-02-25T01:01:05Z</time>
      </trkpt>
      <trkpt lat="49.52152" lon="1.67253">
        <ele>115</ele>
        <time>2011-02-25T01:01:17Z</time>
      </trkpt>
      <trkpt lat="49.5224" lon="1.672">
        <ele>117</ele>
        <time>2011-02-25T01:01:34Z</time>
      </trkpt>
      <trkpt lat="49.52412" lon="1.67138">
        <ele>114</ele>
        <time>2011-02-25T01:01:58Z</time>
      </trkpt>
      <trkpt lat="49.52454" lon="1.67116">
        <ele>110</ele>
        <time>2011-02-25T01:02:04Z</time>
      </trkpt>
      <trkpt lat="49.52501" lon="1.67084">
        <ele>107</ele>
        <time>2011-02-25T01:02:10Z</time>
      </trkpt>
      <trkpt lat="49.52539" lon="1.67043">
        <ele>107</ele>
        <time>2011-02-25T01:02:19Z</time>
      </trkpt>
      <trkpt lat="49.52642" lon="1.66864">
        <ele>111</ele>
        <time>2011-02-25T01:02:47Z</time>
      </trkpt>
      <trkpt lat="49.52654" lon="1.66852">
        <ele>111</ele>
        <time>2011-02-25T01:02:50Z</time>
      </trkpt>
      <trkpt lat="49.52834" lon="1.6674">
        <ele>120</ele>
        <time>2011-02-25T01:03:36Z</time>
      </trkpt>
      <trkpt lat="49.52896" lon="1.66713">
        <ele>121</ele>
        <time>2011-02-25T01:03:48Z</time>
      </trkpt>
      <trkpt lat="49.53142" lon="1.66647">
        <ele>125</ele>
        <time>2011-02-25T01:04:30Z</time>
      </trkpt>
      <trkpt lat="49.53234" lon="1.66605">
        <ele>127</ele>
        <time>2011-02-25T01:04:48Z</time>
      </trkpt>
      <trkpt lat="49.53347" lon="1.66521">
        <ele>127</ele>
        <time>2011-02-25T01:05:05Z</time>
      </trkpt>
      <trkpt lat="49.53419" lon="1.66441">
        <ele>127</ele>
        <time>2011-02-25T01:05:17Z</time>
      </trkpt>
      <trkpt lat="49.53488" lon="1.66382">
        <ele>127</ele>
        <time>2011-02-25T01:05:27Z</time>
      </trkpt>
      <trkpt lat="49.5352" lon="1.66357">
        <ele>127</ele>
        <time>2011-02-25T01:05:33Z</time>
      </trkpt>
      <trkpt lat="49.537" lon="1.6627">
        <ele>129</ele>
        <time>2011-02-25T01:06:02Z</time>
      </trkpt>
      <trkpt lat="49.53791" lon="1.6622">
        <ele>131</ele>
        <time>2011-02-25T01:06:20Z</time>
      </trkpt>
      <trkpt lat="49.54526" lon="1.65791">
        <ele>144</ele>
        <time>2011-02-25T01:08:36Z</time>
      </trkpt>
      <trkpt lat="49.56286" lon="1.65722">
        <ele>176</ele>
        <time>2011-02-25T01:13:48Z</time>
      </trkpt>
      <trkpt lat="49.56965" lon="1.65155">
        <ele>179</ele>
        <time>2011-02-25T01:15:38Z</time>
      </trkpt>
      <trkpt lat="49.57332" lon="1.6452">
        <ele>152</ele>
        <time>2011-02-25T01:16:52Z</time>
      </trkpt>
      <trkpt lat="49.57544" lon="1.63919">
        <ele>131</ele>
        <time>2011-02-25T01:17:51Z</time>
      </trkpt>
      <trkpt lat="49.58301" lon="1.63164">
        <ele>133</ele>
        <time>2011-02-25T01:19:56Z</time>
      </trkpt>
      <trkpt lat="49.59191" lon="1.63662">
        <ele>173</ele>
        <time>2011-02-25T01:23:39Z</time>
      </trkpt>
      <trkpt lat="49.59825" lon="1.63542">
        <ele>189</ele>
        <time>2011-02-25T01:25:43Z</time>
      </trkpt>
      <trkpt lat="49.59758" lon="1.62838">
        <ele>164</ele>
        <time>2011-02-25T01:26:44Z</time>
      </trkpt>
      <trkpt lat="49.59925" lon="1.6222">
        <ele>146</ele>
        <time>2011-02-25T01:27:42Z</time>
      </trkpt>
      <trkpt lat="49.59947" lon="1.6095">
        <ele>146</ele>
        <time>2011-02-25T01:29:32Z</time>
      </trkpt>
      <trkpt lat="49.60181" lon="1.59851">
        <ele>140</ele>
        <time>2011-02-25T01:31:12Z</time>
      </trkpt>
      <trkpt lat="49.59725" lon="1.58667">
        <ele>148</ele>
        <time>2011-02-25T01:33:31Z</time>
      </trkpt>
      <trkpt lat="49.59709" lon="1.58695">
        <ele>148</ele>
        <time>2011-02-25T01:33:34Z</time>
      </trkpt>
      <trkpt lat="49.59685" lon="1.58663">
        <ele>148</ele>
        <time>2011-02-25T01:33:39Z</time>
      </trkpt>
      <trkpt lat="49.59644" lon="1.58609">
        <ele>148</ele>
        <time>2011-02-25T01:33:47Z</time>
      </trkpt>
      <trkpt lat="49.59669" lon="1.58595">
        <ele>148</ele>
        <time>2011-02-25T01:33:50Z</time>
      </trkpt>
      <trkpt lat="49.59699" lon="1.58561">
        <ele>148</ele>
        <time>2011-02-25T01:33:56Z</time>
      </trkpt>
      <trkpt lat="49.59723" lon="1.58533">
        <ele>148</ele>
        <time>2011-02-25T01:34:00Z</time>
      </trkpt>
      <trkpt lat="49.59738" lon="1.58472">
        <ele>149</ele>
        <time>2011-02-25T01:34:06Z</time>
      </trkpt>
      <trkpt lat="49.5979" lon="1.58381">
        <ele>148</ele>
        <time>2011-02-25T01:34:17Z</time>
      </trkpt>
      <trkpt lat="49.59906" lon="1.58206">
        <ele>146</ele>
        <time>2011-02-25T01:34:38Z</time>
      </trkpt>
      <trkpt lat="49.59954" lon="1.5814">
        <ele>144</ele>
        <time>2011-02-25T01:34:47Z</time>
      </trkpt>
      <trkpt lat="49.59999" lon="1.58095">
        <ele>143</ele>
        <time>2011-02-25T01:34:54Z</time>
      </trkpt>
      <trkpt lat="49.60025" lon="1.58091">
        <ele>141</ele>
        <time>2011-02-25T01:34:58Z</time>
      </trkpt>
      <trkpt lat="49.60038" lon="1.58095">
        <ele>141</ele>
        <time>2011-02-25T01:34:59Z</time>
      </trkpt>
      <trkpt lat="49.60071" lon="1.58108">
        <ele>139</ele>
        <time>2011-02-25T01:35:04Z</time>
      </trkpt>
      <trkpt lat="49.60091" lon="1.58125">
        <ele>139</ele>
        <time>2011-02-25T01:35:07Z</time>
      </trkpt>
      <trkpt lat="49.60157" lon="1.58122">
        <ele>141</ele>
        <time>2011-02-25T01:35:21Z</time>
      </trkpt>
      <trkpt lat="49.60291" lon="1.58034">
        <ele>146</ele>
        <time>2011-02-25T01:35:52Z</time>
      </trkpt>
      <trkpt lat="49.60392" lon="1.57943">
        <ele>148</ele>
        <time>2011-02-25T01:36:12Z</time>
      </trkpt>
      <trkpt lat="49.60488" lon="1.57831">
        <ele>149</ele>
        <time>2011-02-25T01:36:31Z</time>
      </trkpt>
      <trkpt lat="49.60596" lon="1.57698">
        <ele>149</ele>
        <time>2011-02-25T01:36:49Z</time>
      </trkpt>
      <trkpt lat="49.60639" lon="1.57617">
        <ele>147</ele>
        <time>2011-02-25T01:36:58Z</time>
      </trkpt>
      <trkpt lat="49.60685" lon="1.57484">
        <ele>146</ele>
        <time>2011-02-25T01:37:11Z</time>
      </trkpt>
      <trkpt lat="49.60751" lon="1.57265">
        <ele>146</ele>
        <time>2011-02-25T01:37:32Z</time>
      </trkpt>
      <trkpt lat="49.60833" lon="1.57126">
        <ele>147</ele>
        <time>2011-02-25T01:37:51Z</time>
      </trkpt>
      <trkpt lat="49.60858" lon="1.57089">
        <ele>147</ele>
        <time>2011-02-25T01:37:58Z</time>
      </trkpt>
      <trkpt lat="49.60861" lon="1.57084">
        <ele>148</ele>
        <time>2011-02-25T01:37:59Z</time>
      </trkpt>
      <trkpt lat="49.60861" lon="1.57084">
        <ele>148</ele>
        <time>2011-02-25T01:38:00Z</time>
      </trkpt>
      <trkpt lat="49.6088" lon="1.57044">
        <ele>148</ele>
        <time>2011-02-25T01:38:05Z</time>
      </trkpt>
      <trkpt lat="49.60876" lon="1.56981">
        <ele>148</ele>
        <time>2011-02-25T01:38:11Z</time>
      </trkpt>
      <trkpt lat="49.60891" lon="1.56931">
        <ele>149</ele>
        <time>2011-02-25T01:38:17Z</time>
      </trkpt>
      <trkpt lat="49.60909" lon="1.56842">
        <ele>149</ele>
        <time>2011-02-25T01:38:25Z</time>
      </trkpt>
      <trkpt lat="49.60942" lon="1.56665">
        <ele>150</ele>
        <time>2011-02-25T01:38:43Z</time>
      </trkpt>
      <trkpt lat="49.6099" lon="1.56345">
        <ele>151</ele>
        <time>2011-02-25T01:39:14Z</time>
      </trkpt>
      <trkpt lat="49.60989" lon="1.56275">
        <ele>151</ele>
        <time>2011-02-25T01:39:20Z</time>
      </trkpt>
      <trkpt lat="49.60988" lon="1.56244">
        <ele>151</ele>
        <time>2011-02-25T01:39:23Z</time>
      </trkpt>
      <trkpt lat="49.60988" lon="1.56199">
        <ele>151</ele>
        <time>2011-02-25T01:39:26Z</time>
      </trkpt>
      <trkpt lat="49.60982" lon="1.56116">
        <ele>149</ele>
        <time>2011-02-25T01:39:34Z</time>
      </trkpt>
      <trkpt lat="49.60988" lon="1.56045">
        <ele>149</ele>
        <time>2011-02-25T01:39:40Z</time>
      </trkpt>
      <trkpt lat="49.60995" lon="1.56002">
        <ele>149</ele>
        <time>2011-02-25T01:39:44Z</time>
      </trkpt>
      <trkpt lat="49.61002" lon="1.5586">
        <ele>149</ele>
        <time>2011-02-25T01:39:56Z</time>
      </trkpt>
      <trkpt lat="49.61004" lon="1.5579">
        <ele>148</ele>
        <time>2011-02-25T01:40:02Z</time>
      </trkpt>
      <trkpt lat="49.61015" lon="1.55735">
        <ele>148</ele>
        <time>2011-02-25T01:40:07Z</time>
      </trkpt>
      <trkpt lat="49.61028" lon="1.55702">
        <ele>148</ele>
        <time>2011-02-25T01:40:10Z</time>
      </trkpt>
      <trkpt lat="49.61044" lon="1.55654">
        <ele>148</ele>
        <time>2011-02-25T01:40:16Z</time>
      </trkpt>
      <trkpt lat="49.61062" lon="1.55603">
        <ele>148</ele>
        <time>2011-02-25T01:40:22Z</time>
      </trkpt>
      <trkpt lat="49.61066" lon="1.55565">
        <ele>149</ele>
        <time>2011-02-25T01:40:26Z</time>
      </trkpt>
      <trkpt lat="49.61063" lon="1.55556">
        <ele>149</ele>
        <time>2011-02-25T01:40:27Z</time>
      </trkpt>
      <trkpt lat="49.61105" lon="1.55519">
        <ele>149</ele>
        <time>2011-02-25T01:40:34Z</time>
      </trkpt>
      <trkpt lat="49.6115" lon="1.55458">
        <ele>150</ele>
        <time>2011-02-25T01:40:44Z</time>
      </trkpt>
      <trkpt lat="49.61244" lon="1.55274">
        <ele>155</ele>
        <time>2011-02-25T01:41:16Z</time>
      </trkpt>
      <trkpt lat="49.61256" lon="1.55249">
        <ele>154</ele>
        <time>2011-02-25T01:41:19Z</time>
      </trkpt>
      <trkpt lat="49.61262" lon="1.55252">
        <ele>154</ele>
        <time>2011-02-25T01:41:19Z</time>
      </trkpt>
      <trkpt lat="49.61324" lon="1.5528">
        <ele>153</ele>
        <time>2011-02-25T01:41:28Z</time>
      </trkpt>
      <trkpt lat="49.6134" lon="1.55278">
        <ele>153</ele>
        <time>2011-02-25T01:41:30Z</time>
      </trkpt>
      <trkpt lat="49.61357" lon="1.55267">
        <ele>153</ele>
        <time>2011-02-25T01:41:33Z</time>
      </trkpt>
      <trkpt lat="49.61436" lon="1.55127">
        <ele>153</ele>
        <time>2011-02-25T01:41:49Z</time>
      </trkpt>
      <trkpt lat="49.61447" lon="1.55121">
        <ele>152</ele>
        <time>2011-02-25T01:41:50Z</time>
      </trkpt>
      <trkpt lat="49.61475" lon="1.55116">
        <ele>152</ele>
        <time>2011-02-25T01:41:54Z</time>
      </trkpt>
      <trkpt lat="49.61489" lon="1.55105">
        <ele>152</ele>
        <time>2011-02-25T01:41:56Z</time>
      </trkpt>
      <trkpt lat="49.61503" lon="1.55067">
        <ele>152</ele>
        <time>2011-02-25T01:42:00Z</time>
      </trkpt>
      <trkpt lat="49.61522" lon="1.55016">
        <ele>152</ele>
        <time>2011-02-25T01:42:05Z</time>
      </trkpt>
      <trkpt lat="49.61535" lon="1.54964">
        <ele>151</ele>
        <time>2011-02-25T01:42:10Z</time>
      </trkpt>
      <trkpt lat="49.61542" lon="1.54917">
        <ele>151</ele>
        <time>2011-02-25T01:42:14Z</time>
      </trkpt>
      <trkpt lat="49.61544" lon="1.54905">
        <ele>151</ele>
        <time>2011-02-25T01:42:15Z</time>
      </trkpt>
      <trkpt lat="49.61563" lon="1.54763">
        <ele>151</ele>
        <time>2011-02-25T01:42:28Z</time>
      </trkpt>
      <trkpt lat="49.61571" lon="1.54682">
        <ele>151</ele>
        <time>2011-02-25T01:42:37Z</time>
      </trkpt>
      <trkpt lat="49.6158" lon="1.54578">
        <ele>153</ele>
        <time>2011-02-25T01:42:49Z</time>
      </trkpt>
      <trkpt lat="49.61581" lon="1.54552">
        <ele>153</ele>
        <time>2011-02-25T01:42:51Z</time>
      </trkpt>
      <trkpt lat="49.61594" lon="1.54549">
        <ele>153</ele>
        <time>2011-02-25T01:42:53Z</time>
      </trkpt>
      <trkpt lat="49.61647" lon="1.54371">
        <ele>153</ele>
        <time>2011-02-25T01:43:10Z</time>
      </trkpt>
      <trkpt lat="49.61659" lon="1.54334">
        <ele>153</ele>
        <time>2011-02-25T01:43:13Z</time>
      </trkpt>
      <trkpt lat="49.61823" lon="1.54115">
        <ele>154</ele>
        <time>2011-02-25T01:43:45Z</time>
      </trkpt>
      <trkpt lat="49.61858" lon="1.54069">
        <ele>156</ele>
        <time>2011-02-25T01:43:56Z</time>
      </trkpt>
      <trkpt lat="49.61887" lon="1.54031">
        <ele>157</ele>
        <time>2011-02-25T01:44:05Z</time>
      </trkpt>
      <trkpt lat="49.61901" lon="1.53998">
        <ele>159</ele>
        <time>2011-02-25T01:44:11Z</time>
      </trkpt>
      <trkpt lat="49.61912" lon="1.53935">
        <ele>160</ele>
        <time>2011-02-25T01:44:21Z</time>
      </trkpt>
      <trkpt lat="49.61909" lon="1.53832">
        <ele>163</ele>
        <time>2011-02-25T01:44:35Z</time>
      </trkpt>
      <trkpt lat="49.62086" lon="1.53816">
        <ele>162</ele>
        <time>2011-02-25T01:44:59Z</time>
      </trkpt>
      <trkpt lat="49.623" lon="1.53797">
        <ele>166</ele>
        <time>2011-02-25T01:45:37Z</time>
      </trkpt>
      <trkpt lat="49.62317" lon="1.53796">
        <ele>166</ele>
        <time>2011-02-25T01:45:40Z</time>
      </trkpt>
      <trkpt lat="49.62487" lon="1.53784">
        <ele>170</ele>
        <time>2011-02-25T01:46:12Z</time>
      </trkpt>
      <trkpt lat="49.62492" lon="1.53783">
        <ele>170</ele>
        <time>2011-02-25T01:46:13Z</time>
      </trkpt>
      <trkpt lat="49.62672" lon="1.5377">
        <ele>173</ele>
        <time>2011-02-25T01:46:44Z</time>
      </trkpt>
      <trkpt lat="49.62677" lon="1.53769">
        <ele>172</ele>
        <time>2011-02-25T01:46:44Z</time>
      </trkpt>
      <trkpt lat="49.62744" lon="1.53757">
        <ele>171</ele>
        <time>2011-02-25T01:46:54Z</time>
      </trkpt>
      <trkpt lat="49.62752" lon="1.53754">
        <ele>171</ele>
        <time>2011-02-25T01:46:55Z</time>
      </trkpt>
      <trkpt lat="49.62785" lon="1.53747">
        <ele>171</ele>
        <time>2011-02-25T01:46:59Z</time>
      </trkpt>
      <trkpt lat="49.62819" lon="1.53739">
        <ele>171</ele>
        <time>2011-02-25T01:47:05Z</time>
      </trkpt>
      <trkpt lat="49.62835" lon="1.53735">
        <ele>171</ele>
        <time>2011-02-25T01:47:08Z</time>
      </trkpt>
      <trkpt lat="49.62868" lon="1.5373">
        <ele>172</ele>
        <time>2011-02-25T01:47:14Z</time>
      </trkpt>
      <trkpt lat="49.62886" lon="1.53727">
        <ele>173</ele>
        <time>2011-02-25T01:47:17Z</time>
      </trkpt>
      <trkpt lat="49.62927" lon="1.53723">
        <ele>173</ele>
        <time>2011-02-25T01:47:23Z</time>
      </trkpt>
      <trkpt lat="49.6299" lon="1.53755">
        <ele>173</ele>
        <time>2011-02-25T01:47:32Z</time>
      </trkpt>
      <trkpt lat="49.63206" lon="1.53884">
        <ele>170</ele>
        <time>2011-02-25T01:48:03Z</time>
      </trkpt>
      <trkpt lat="49.63216" lon="1.53891">
        <ele>169</ele>
        <time>2011-02-25T01:48:04Z</time>
      </trkpt>
      <trkpt lat="49.63391" lon="1.54">
        <ele>166</ele>
        <time>2011-02-25T01:48:29Z</time>
      </trkpt>
      <trkpt lat="49.63444" lon="1.54024">
        <ele>165</ele>
        <time>2011-02-25T01:48:37Z</time>
      </trkpt>
      <trkpt lat="49.6347" lon="1.54029">
        <ele>164</ele>
        <time>2011-02-25T01:48:40Z</time>
      </trkpt>
      <trkpt lat="49.63548" lon="1.54045">
        <ele>164</ele>
        <time>2011-02-25T01:48:51Z</time>
      </trkpt>
      <trkpt lat="49.63704" lon="1.54057">
        <ele>167</ele>
        <time>2011-02-25T01:49:19Z</time>
      </trkpt>
      <trkpt lat="49.63825" lon="1.54034">
        <ele>166</ele>
        <time>2011-02-25T01:49:35Z</time>
      </trkpt>
      <trkpt lat="49.63932" lon="1.53967">
        <ele>166</ele>
        <time>2011-02-25T01:49:51Z</time>
      </trkpt>
      <trkpt lat="49.64043" lon="1.5388">
        <ele>165</ele>
        <time>2011-02-25T01:50:07Z</time>
      </trkpt>
      <trkpt lat="49.64112" lon="1.53796">
        <ele>163</ele>
        <time>2011-02-25T01:50:19Z</time>
      </trkpt>
      <trkpt lat="49.64157" lon="1.53737">
        <ele>162</ele>
        <time>2011-02-25T01:50:27Z</time>
      </trkpt>
      <trkpt lat="49.64194" lon="1.53722">
        <ele>161</ele>
        <time>2011-02-25T01:50:32Z</time>
      </trkpt>
      <trkpt lat="49.64228" lon="1.53729">
        <ele>160</ele>
        <time>2011-02-25T01:50:37Z</time>
      </trkpt>
      <trkpt lat="49.64278" lon="1.53662">
        <ele>160</ele>
        <time>2011-02-25T01:50:45Z</time>
      </trkpt>
      <trkpt lat="49.64278" lon="1.53662">
        <ele>160</ele>
        <time>2011-02-25T01:50:46Z</time>
      </trkpt>
      <trkpt lat="49.64377" lon="1.53527">
        <ele>159</ele>
        <time>2011-02-25T01:51:04Z</time>
      </trkpt>
      <trkpt lat="49.64494" lon="1.53372">
        <ele>157</ele>
        <time>2011-02-25T01:51:25Z</time>
      </trkpt>
      <trkpt lat="49.64543" lon="1.53299">
        <ele>156</ele>
        <time>2011-02-25T01:51:34Z</time>
      </trkpt>
      <trkpt lat="49.64582" lon="1.53224">
        <ele>156</ele>
        <time>2011-02-25T01:51:42Z</time>
      </trkpt>
      <trkpt lat="49.64624" lon="1.53133">
        <ele>155</ele>
        <time>2011-02-25T01:51:52Z</time>
      </trkpt>
      <trkpt lat="49.64659" lon="1.53036">
        <ele>155</ele>
        <time>2011-02-25T01:52:01Z</time>
      </trkpt>
      <trkpt lat="49.6469" lon="1.52933">
        <ele>153</ele>
        <time>2011-02-25T01:52:11Z</time>
      </trkpt>
      <trkpt lat="49.64712" lon="1.52824">
        <ele>151</ele>
        <time>2011-02-25T01:52:21Z</time>
      </trkpt>
      <trkpt lat="49.64727" lon="1.52703">
        <ele>148</ele>
        <time>2011-02-25T01:52:32Z</time>
      </trkpt>
      <trkpt lat="49.64762" lon="1.524">
        <ele>144</ele>
        <time>2011-02-25T01:52:58Z</time>
      </trkpt>
      <trkpt lat="49.64776" lon="1.52288">
        <ele>141</ele>
        <time>2011-02-25T01:53:08Z</time>
      </trkpt>
      <trkpt lat="49.64801" lon="1.52161">
        <ele>138</ele>
        <time>2011-02-25T01:53:20Z</time>
      </trkpt>
      <trkpt lat="49.64835" lon="1.52037">
        <ele>139</ele>
        <time>2011-02-25T01:53:36Z</time>
      </trkpt>
      <trkpt lat="49.64877" lon="1.51917">
        <ele>142</ele>
        <time>2011-02-25T01:53:53Z</time>
      </trkpt>
      <trkpt lat="49.64927" lon="1.518">
        <ele>146</ele>
        <time>2011-02-25T01:54:14Z</time>
      </trkpt>
      <trkpt lat="49.64974" lon="1.51709">
        <ele>143</ele>
        <time>2011-02-25T01:54:24Z</time>
      </trkpt>
      <trkpt lat="49.65053" lon="1.51592">
        <ele>141</ele>
        <time>2011-02-25T01:54:39Z</time>
      </trkpt>
      <trkpt lat="49.654" lon="1.51165">
        <ele>138</ele>
        <time>2011-02-25T01:55:38Z</time>
      </trkpt>
      <trkpt lat="49.65453" lon="1.51112">
        <ele>137</ele>
        <time>2011-02-25T01:55:47Z</time>
      </trkpt>
      <trkpt lat="49.65534" lon="1.51045">
        <ele>136</ele>
        <time>2011-02-25T01:55:59Z</time>
      </trkpt>
      <trkpt lat="49.65623" lon="1.50991">
        <ele>134</ele>
        <time>2011-02-25T01:56:12Z</time>
      </trkpt>
      <trkpt lat="49.6569" lon="1.50963">
        <ele>133</ele>
        <time>2011-02-25T01:56:21Z</time>
      </trkpt>
      <trkpt lat="49.65768" lon="1.50937">
        <ele>133</ele>
        <time>2011-02-25T01:56:32Z</time>
      </trkpt>
      <trkpt lat="49.65834" lon="1.50924">
        <ele>131</ele>
        <time>2011-02-25T01:56:41Z</time>
      </trkpt>
      <trkpt lat="49.6608" lon="1.50872">
        <ele>126</ele>
        <time>2011-02-25T01:57:14Z</time>
      </trkpt>
      <trkpt lat="49.66424" lon="1.50811">
        <ele>125</ele>
        <time>2011-02-25T01:58:00Z</time>
      </trkpt>
      <trkpt lat="49.66483" lon="1.50797">
        <ele>123</ele>
        <time>2011-02-25T01:58:08Z</time>
      </trkpt>
      <trkpt lat="49.66584" lon="1.50778">
        <ele>122</ele>
        <time>2011-02-25T01:58:22Z</time>
      </trkpt>
      <trkpt lat="49.66644" lon="1.50776">
        <ele>122</ele>
        <time>2011-02-25T01:58:30Z</time>
      </trkpt>
      <trkpt lat="49.66792" lon="1.50795">
        <ele>122</ele>
        <time>2011-02-25T01:58:49Z</time>
      </trkpt>
      <trkpt lat="49.66869" lon="1.50807">
        <ele>116</ele>
        <time>2011-02-25T01:59:00Z</time>
      </trkpt>
      <trkpt lat="49.66938" lon="1.50814">
        <ele>112</ele>
        <time>2011-02-25T01:59:09Z</time>
      </trkpt>
      <trkpt lat="49.67" lon="1.5081">
        <ele>113</ele>
        <time>2011-02-25T01:59:21Z</time>
      </trkpt>
      <trkpt lat="49.67054" lon="1.50802">
        <ele>115</ele>
        <time>2011-02-25T01:59:32Z</time>
      </trkpt>
      <trkpt lat="49.67202" lon="1.50753">
        <ele>117</ele>
        <time>2011-02-25T01:59:57Z</time>
      </trkpt>
      <trkpt lat="49.67665" lon="1.50593">
        <ele>108</ele>
        <time>2011-02-25T02:01:00Z</time>
      </trkpt>
      <trkpt lat="49.67726" lon="1.50574">
        <ele>107</ele>
        <time>2011-02-25T02:01:08Z</time>
      </trkpt>
      <trkpt lat="49.67775" lon="1.50555">
        <ele>107</ele>
        <time>2011-02-25T02:01:15Z</time>
      </trkpt>
      <trkpt lat="49.67846" lon="1.50515">
        <ele>107</ele>
        <time>2011-02-25T02:01:25Z</time>
      </trkpt>
      <trkpt lat="49.67892" lon="1.50479">
        <ele>107</ele>
        <time>2011-02-25T02:01:32Z</time>
      </trkpt>
      <trkpt lat="49.67938" lon="1.50434">
        <ele>107</ele>
        <time>2011-02-25T02:01:41Z</time>
      </trkpt>
      <trkpt lat="49.6806" lon="1.50279">
        <ele>109</ele>
        <time>2011-02-25T02:02:05Z</time>
      </trkpt>
      <trkpt lat="49.68122" lon="1.5022">
        <ele>107</ele>
        <time>2011-02-25T02:02:15Z</time>
      </trkpt>
      <trkpt lat="49.68152" lon="1.50192">
        <ele>107</ele>
        <time>2011-02-25T02:02:20Z</time>
      </trkpt>
      <trkpt lat="49.68196" lon="1.50167">
        <ele>106</ele>
        <time>2011-02-25T02:02:26Z</time>
      </trkpt>
      <trkpt lat="49.68238" lon="1.50143">
        <ele>106</ele>
        <time>2011-02-25T02:02:32Z</time>
      </trkpt>
      <trkpt lat="49.68293" lon="1.50121">
        <ele>105</ele>
        <time>2011-02-25T02:02:40Z</time>
      </trkpt>
      <trkpt lat="49.68339" lon="1.50111">
        <ele>105</ele>
        <time>2011-02-25T02:02:46Z</time>
      </trkpt>
      <trkpt lat="49.68394" lon="1.5011">
        <ele>104</ele>
        <time>2011-02-25T02:02:53Z</time>
      </trkpt>
      <trkpt lat="49.68567" lon="1.5013">
        <ele>104</ele>
        <time>2011-02-25T02:03:16Z</time>
      </trkpt>
      <trkpt lat="49.68629" lon="1.50131">
        <ele>103</ele>
        <time>2011-02-25T02:03:25Z</time>
      </trkpt>
      <trkpt lat="49.68696" lon="1.50131">
        <ele>102</ele>
        <time>2011-02-25T02:03:34Z</time>
      </trkpt>
      <trkpt lat="49.68747" lon="1.50128">
        <ele>101</ele>
        <time>2011-02-25T02:03:40Z</time>
      </trkpt>
      <trkpt lat="49.68801" lon="1.50114">
        <ele>101</ele>
        <time>2011-02-25T02:03:48Z</time>
      </trkpt>
      <trkpt lat="49.68867" lon="1.50088">
        <ele>100</ele>
        <time>2011-02-25T02:03:57Z</time>
      </trkpt>
      <trkpt lat="49.68983" lon="1.50006">
        <ele>99</ele>
        <time>2011-02-25T02:04:14Z</time>
      </trkpt>
      <trkpt lat="49.69118" lon="1.49901">
        <ele>101</ele>
        <time>2011-02-25T02:04:39Z</time>
      </trkpt>
      <trkpt lat="49.69234" lon="1.49803">
        <ele>101</ele>
        <time>2011-02-25T02:04:56Z</time>
      </trkpt>
      <trkpt lat="49.69337" lon="1.49732">
        <ele>100</ele>
        <time>2011-02-25T02:05:12Z</time>
      </trkpt>
      <trkpt lat="49.6959" lon="1.49592">
        <ele>98</ele>
        <time>2011-02-25T02:05:47Z</time>
      </trkpt>
      <trkpt lat="49.69674" lon="1.49542">
        <ele>98</ele>
        <time>2011-02-25T02:05:59Z</time>
      </trkpt>
      <trkpt lat="49.69756" lon="1.49485">
        <ele>97</ele>
        <time>2011-02-25T02:06:11Z</time>
      </trkpt>
      <trkpt lat="49.69823" lon="1.49429">
        <ele>97</ele>
        <time>2011-02-25T02:06:22Z</time>
      </trkpt>
      <trkpt lat="49.69895" lon="1.4935">
        <ele>97</ele>
        <time>2011-02-25T02:06:33Z</time>
      </trkpt>
      <trkpt lat="49.69965" lon="1.49259">
        <ele>97</ele>
        <time>2011-02-25T02:06:46Z</time>
      </trkpt>
      <trkpt lat="49.70035" lon="1.49145">
        <ele>97</ele>
        <time>2011-02-25T02:06:59Z</time>
      </trkpt>
      <trkpt lat="49.70079" lon="1.49056">
        <ele>98</ele>
        <time>2011-02-25T02:07:11Z</time>
      </trkpt>
      <trkpt lat="49.70079" lon="1.49056">
        <ele>98</ele>
        <time>2011-02-25T02:07:12Z</time>
      </trkpt>
      <trkpt lat="49.70082" lon="1.49049">
        <ele>98</ele>
        <time>2011-02-25T02:07:13Z</time>
      </trkpt>
      <trkpt lat="49.70125" lon="1.48945">
        <ele>99</ele>
        <time>2011-02-25T02:07:27Z</time>
      </trkpt>
      <trkpt lat="49.70189" lon="1.48768">
        <ele>101</ele>
        <time>2011-02-25T02:07:48Z</time>
      </trkpt>
      <trkpt lat="49.70255" lon="1.48584">
        <ele>100</ele>
        <time>2011-02-25T02:08:07Z</time>
      </trkpt>
      <trkpt lat="49.70321" lon="1.48407">
        <ele>97</ele>
        <time>2011-02-25T02:08:24Z</time>
      </trkpt>
      <trkpt lat="49.70379" lon="1.4824">
        <ele>99</ele>
        <time>2011-02-25T02:08:45Z</time>
      </trkpt>
      <trkpt lat="49.70442" lon="1.48058">
        <ele>98</ele>
        <time>2011-02-25T02:09:03Z</time>
      </trkpt>
      <trkpt lat="49.70502" lon="1.47891">
        <ele>96</ele>
        <time>2011-02-25T02:09:20Z</time>
      </trkpt>
      <trkpt lat="49.70527" lon="1.47801">
        <ele>96</ele>
        <time>2011-02-25T02:09:28Z</time>
      </trkpt>
      <trkpt lat="49.70566" lon="1.47627">
        <ele>96</ele>
        <time>2011-02-25T02:09:44Z</time>
      </trkpt>
      <trkpt lat="49.7066" lon="1.47127">
        <ele>95</ele>
        <time>2011-02-25T02:10:29Z</time>
      </trkpt>
      <trkpt lat="49.70688" lon="1.47011">
        <ele>95</ele>
        <time>2011-02-25T02:10:40Z</time>
      </trkpt>
      <trkpt lat="49.70716" lon="1.46937">
        <ele>95</ele>
        <time>2011-02-25T02:10:47Z</time>
      </trkpt>
      <trkpt lat="49.70737" lon="1.46883">
        <ele>94</ele>
        <time>2011-02-25T02:10:53Z</time>
      </trkpt>
      <trkpt lat="49.70772" lon="1.4682">
        <ele>94</ele>
        <time>2011-02-25T02:11:00Z</time>
      </trkpt>
      <trkpt lat="49.70811" lon="1.46765">
        <ele>92</ele>
        <time>2011-02-25T02:11:07Z</time>
      </trkpt>
      <trkpt lat="49.70845" lon="1.46728">
        <ele>92</ele>
        <time>2011-02-25T02:11:12Z</time>
      </trkpt>
      <trkpt lat="49.70887" lon="1.46693">
        <ele>92</ele>
        <time>2011-02-25T02:11:19Z</time>
      </trkpt>
      <trkpt lat="49.71068" lon="1.46578">
        <ele>93</ele>
        <time>2011-02-25T02:11:47Z</time>
      </trkpt>
      <trkpt lat="49.71103" lon="1.46553">
        <ele>93</ele>
        <time>2011-02-25T02:11:52Z</time>
      </trkpt>
      <trkpt lat="49.71163" lon="1.46509">
        <ele>93</ele>
        <time>2011-02-25T02:12:01Z</time>
      </trkpt>
      <trkpt lat="49.71205" lon="1.46471">
        <ele>93</ele>
        <time>2011-02-25T02:12:08Z</time>
      </trkpt>
      <trkpt lat="49.71238" lon="1.46435">
        <ele>93</ele>
        <time>2011-02-25T02:12:13Z</time>
      </trkpt>
      <trkpt lat="49.71289" lon="1.46378">
        <ele>93</ele>
        <time>2011-02-25T02:12:22Z</time>
      </trkpt>
      <trkpt lat="49.71328" lon="1.46329">
        <ele>93</ele>
        <time>2011-02-25T02:12:28Z</time>
      </trkpt>
      <trkpt lat="49.71379" lon="1.46253">
        <ele>93</ele>
        <time>2011-02-25T02:12:38Z</time>
      </trkpt>
      <trkpt lat="49.71428" lon="1.46168">
        <ele>92</ele>
        <time>2011-02-25T02:12:48Z</time>
      </trkpt>
      <trkpt lat="49.71522" lon="1.45971">
        <ele>90</ele>
        <time>2011-02-25T02:13:09Z</time>
      </trkpt>
      <trkpt lat="49.71561" lon="1.45878">
        <ele>90</ele>
        <time>2011-02-25T02:13:19Z</time>
      </trkpt>
      <trkpt lat="49.71621" lon="1.45753">
        <ele>91</ele>
        <time>2011-02-25T02:13:34Z</time>
      </trkpt>
      <trkpt lat="49.71661" lon="1.45682">
        <ele>89</ele>
        <time>2011-02-25T02:13:42Z</time>
      </trkpt>
      <trkpt lat="49.717" lon="1.45632">
        <ele>89</ele>
        <time>2011-02-25T02:13:49Z</time>
      </trkpt>
      <trkpt lat="49.71756" lon="1.45564">
        <ele>87</ele>
        <time>2011-02-25T02:13:59Z</time>
      </trkpt>
      <trkpt lat="49.71838" lon="1.45475">
        <ele>86</ele>
        <time>2011-02-25T02:14:12Z</time>
      </trkpt>
      <trkpt lat="49.71904" lon="1.45397">
        <ele>86</ele>
        <time>2011-02-25T02:14:23Z</time>
      </trkpt>
      <trkpt lat="49.71931" lon="1.45358">
        <ele>86</ele>
        <time>2011-02-25T02:14:28Z</time>
      </trkpt>
      <trkpt lat="49.71979" lon="1.45288">
        <ele>85</ele>
        <time>2011-02-25T02:14:37Z</time>
      </trkpt>
      <trkpt lat="49.72016" lon="1.4522">
        <ele>85</ele>
        <time>2011-02-25T02:14:45Z</time>
      </trkpt>
      <trkpt lat="49.72061" lon="1.45131">
        <ele>84</ele>
        <time>2011-02-25T02:14:54Z</time>
      </trkpt>
      <trkpt lat="49.7208" lon="1.45082">
        <ele>84</ele>
        <time>2011-02-25T02:14:59Z</time>
      </trkpt>
      <trkpt lat="49.72096" lon="1.45036">
        <ele>84</ele>
        <time>2011-02-25T02:15:04Z</time>
      </trkpt>
      <trkpt lat="49.72124" lon="1.4495">
        <ele>84</ele>
        <time>2011-02-25T02:15:12Z</time>
      </trkpt>
      <trkpt lat="49.72155" lon="1.44842">
        <ele>84</ele>
        <time>2011-02-25T02:15:22Z</time>
      </trkpt>
      <trkpt lat="49.72202" lon="1.4467">
        <ele>84</ele>
        <time>2011-02-25T02:15:38Z</time>
      </trkpt>
      <trkpt lat="49.72297" lon="1.44307">
        <ele>88</ele>
        <time>2011-02-25T02:16:22Z</time>
      </trkpt>
      <trkpt lat="49.72345" lon="1.44134">
        <ele>85</ele>
        <time>2011-02-25T02:16:38Z</time>
      </trkpt>
      <trkpt lat="49.72376" lon="1.44039">
        <ele>85</ele>
        <time>2011-02-25T02:16:47Z</time>
      </trkpt>
      <trkpt lat="49.72398" lon="1.43977">
        <ele>85</ele>
        <time>2011-02-25T02:16:53Z</time>
      </trkpt>
      <trkpt lat="49.72427" lon="1.4392">
        <ele>86</ele>
        <time>2011-02-25T02:17:02Z</time>
      </trkpt>
      <trkpt lat="49.72461" lon="1.43871">
        <ele>87</ele>
        <time>2011-02-25T02:17:11Z</time>
      </trkpt>
      <trkpt lat="49.72487" lon="1.43838">
        <ele>86</ele>
        <time>2011-02-25T02:17:15Z</time>
      </trkpt>
      <trkpt lat="49.72526" lon="1.43798">
        <ele>84</ele>
        <time>2011-02-25T02:17:21Z</time>
      </trkpt>
      <trkpt lat="49.72583" lon="1.4375">
        <ele>83</ele>
        <time>2011-02-25T02:17:30Z</time>
      </trkpt>
      <trkpt lat="49.72628" lon="1.43721">
        <ele>81</ele>
        <time>2011-02-25T02:17:37Z</time>
      </trkpt>
      <trkpt lat="49.72677" lon="1.43706">
        <ele>80</ele>
        <time>2011-02-25T02:17:43Z</time>
      </trkpt>
      <trkpt lat="49.72717" lon="1.43697">
        <ele>79</ele>
        <time>2011-02-25T02:17:49Z</time>
      </trkpt>
      <trkpt lat="49.72755" lon="1.43691">
        <ele>78</ele>
        <time>2011-02-25T02:17:54Z</time>
      </trkpt>
      <trkpt lat="49.72828" lon="1.437">
        <ele>78</ele>
        <time>2011-02-25T02:18:04Z</time>
      </trkpt>
      <trkpt lat="49.73026" lon="1.4372">
        <ele>78</ele>
        <time>2011-02-25T02:18:30Z</time>
      </trkpt>
      <trkpt lat="49.7309" lon="1.43722">
        <ele>78</ele>
        <time>2011-02-25T02:18:39Z</time>
      </trkpt>
      <trkpt lat="49.73111" lon="1.43722">
        <ele>78</ele>
        <time>2011-02-25T02:18:41Z</time>
      </trkpt>
      <trkpt lat="49.73143" lon="1.43717">
        <ele>78</ele>
        <time>2011-02-25T02:18:46Z</time>
      </trkpt>
      <trkpt lat="49.73178" lon="1.4371">
        <ele>77</ele>
        <time>2011-02-25T02:18:50Z</time>
      </trkpt>
      <trkpt lat="49.73211" lon="1.43692">
        <ele>77</ele>
        <time>2011-02-25T02:18:55Z</time>
      </trkpt>
      <trkpt lat="49.73241" lon="1.43675">
        <ele>77</ele>
        <time>2011-02-25T02:18:59Z</time>
      </trkpt>
      <trkpt lat="49.7327" lon="1.43657">
        <ele>77</ele>
        <time>2011-02-25T02:19:04Z</time>
      </trkpt>
      <trkpt lat="49.73297" lon="1.43628">
        <ele>77</ele>
        <time>2011-02-25T02:19:09Z</time>
      </trkpt>
      <trkpt lat="49.73347" lon="1.43576">
        <ele>78</ele>
        <time>2011-02-25T02:19:18Z</time>
      </trkpt>
      <trkpt lat="49.73383" lon="1.43534">
        <ele>77</ele>
        <time>2011-02-25T02:19:24Z</time>
      </trkpt>
      <trkpt lat="49.73405" lon="1.43505">
        <ele>77</ele>
        <time>2011-02-25T02:19:28Z</time>
      </trkpt>
      <trkpt lat="49.73418" lon="1.43491">
        <ele>77</ele>
        <time>2011-02-25T02:19:30Z</time>
      </trkpt>
      <trkpt lat="49.73486" lon="1.43414">
        <ele>77</ele>
        <time>2011-02-25T02:19:42Z</time>
      </trkpt>
      <trkpt lat="49.73518" lon="1.43368">
        <ele>76</ele>
        <time>2011-02-25T02:19:47Z</time>
      </trkpt>
      <trkpt lat="49.73549" lon="1.43331">
        <ele>76</ele>
        <time>2011-02-25T02:19:53Z</time>
      </trkpt>
      <trkpt lat="49.73582" lon="1.43281">
        <ele>76</ele>
        <time>2011-02-25T02:19:59Z</time>
      </trkpt>
      <trkpt lat="49.73627" lon="1.43213">
        <ele>76</ele>
        <time>2011-02-25T02:20:09Z</time>
      </trkpt>
      <trkpt lat="49.7366" lon="1.43153">
        <ele>77</ele>
        <time>2011-02-25T02:20:16Z</time>
      </trkpt>
      <trkpt lat="49.73679" lon="1.43117">
        <ele>77</ele>
        <time>2011-02-25T02:20:21Z</time>
      </trkpt>
      <trkpt lat="49.73699" lon="1.43072">
        <ele>77</ele>
        <time>2011-02-25T02:20:26Z</time>
      </trkpt>
      <trkpt lat="49.73733" lon="1.42995">
        <ele>78</ele>
        <time>2011-02-25T02:20:36Z</time>
      </trkpt>
      <trkpt lat="49.73753" lon="1.42941">
        <ele>78</ele>
        <time>2011-02-25T02:20:42Z</time>
      </trkpt>
      <trkpt lat="49.73772" lon="1.42912">
        <ele>79</ele>
        <time>2011-02-25T02:20:47Z</time>
      </trkpt>
      <trkpt lat="49.73783" lon="1.42883">
        <ele>79</ele>
        <time>2011-02-25T02:20:51Z</time>
      </trkpt>
      <trkpt lat="49.73808" lon="1.42827">
        <ele>80</ele>
        <time>2011-02-25T02:20:58Z</time>
      </trkpt>
      <trkpt lat="49.73836" lon="1.42748">
        <ele>78</ele>
        <time>2011-02-25T02:21:06Z</time>
      </trkpt>
      <trkpt lat="49.73859" lon="1.42707">
        <ele>78</ele>
        <time>2011-02-25T02:21:11Z</time>
      </trkpt>
      <trkpt lat="49.73876" lon="1.42682">
        <ele>78</ele>
        <time>2011-02-25T02:21:14Z</time>
      </trkpt>
      <trkpt lat="49.73966" lon="1.42532">
        <ele>79</ele>
        <time>2011-02-25T02:21:34Z</time>
      </trkpt>
      <trkpt lat="49.74059" lon="1.42393">
        <ele>82</ele>
        <time>2011-02-25T02:21:58Z</time>
      </trkpt>
      <trkpt lat="49.74173" lon="1.42225">
        <ele>82</ele>
        <time>2011-02-25T02:22:19Z</time>
      </trkpt>
      <trkpt lat="49.74223" lon="1.42144">
        <ele>81</ele>
        <time>2011-02-25T02:22:29Z</time>
      </trkpt>
      <trkpt lat="49.74281" lon="1.4203">
        <ele>80</ele>
        <time>2011-02-25T02:22:42Z</time>
      </trkpt>
      <trkpt lat="49.74382" lon="1.41848">
        <ele>80</ele>
        <time>2011-02-25T02:23:02Z</time>
      </trkpt>
      <trkpt lat="49.74433" lon="1.41748">
        <ele>80</ele>
        <time>2011-02-25T02:23:15Z</time>
      </trkpt>
      <trkpt lat="49.74593" lon="1.41509">
        <ele>82</ele>
        <time>2011-02-25T02:23:48Z</time>
      </trkpt>
      <trkpt lat="49.74681" lon="1.41389">
        <ele>82</ele>
        <time>2011-02-25T02:24:03Z</time>
      </trkpt>
      <trkpt lat="49.74709" lon="1.41346">
        <ele>82</ele>
        <time>2011-02-25T02:24:09Z</time>
      </trkpt>
      <trkpt lat="49.74864" lon="1.41086">
        <ele>82</ele>
        <time>2011-02-25T02:24:39Z</time>
      </trkpt>
      <trkpt lat="49.7494" lon="1.40949">
        <ele>81</ele>
        <time>2011-02-25T02:24:55Z</time>
      </trkpt>
      <trkpt lat="49.75" lon="1.40841">
        <ele>82</ele>
        <time>2011-02-25T02:25:10Z</time>
      </trkpt>
      <trkpt lat="49.75048" lon="1.40719">
        <ele>82</ele>
        <time>2011-02-25T02:25:22Z</time>
      </trkpt>
      <trkpt lat="49.75106" lon="1.40553">
        <ele>80</ele>
        <time>2011-02-25T02:25:38Z</time>
      </trkpt>
      <trkpt lat="49.75148" lon="1.40435">
        <ele>80</ele>
        <time>2011-02-25T02:25:50Z</time>
      </trkpt>
      <trkpt lat="49.752" lon="1.40304">
        <ele>80</ele>
        <time>2011-02-25T02:26:03Z</time>
      </trkpt>
      <trkpt lat="49.75277" lon="1.39974">
        <ele>75</ele>
        <time>2011-02-25T02:26:33Z</time>
      </trkpt>
      <trkpt lat="49.75297" lon="1.39881">
        <ele>74</ele>
        <time>2011-02-25T02:26:42Z</time>
      </trkpt>
      <trkpt lat="49.75359" lon="1.39597">
        <ele>74</ele>
        <time>2011-02-25T02:27:08Z</time>
      </trkpt>
      <trkpt lat="49.7538" lon="1.39501">
        <ele>73</ele>
        <time>2011-02-25T02:27:16Z</time>
      </trkpt>
      <trkpt lat="49.75423" lon="1.39341">
        <ele>72</ele>
        <time>2011-02-25T02:27:31Z</time>
      </trkpt>
      <trkpt lat="49.75454" lon="1.39255">
        <ele>70</ele>
        <time>2011-02-25T02:27:40Z</time>
      </trkpt>
      <trkpt lat="49.75483" lon="1.39186">
        <ele>70</ele>
        <time>2011-02-25T02:27:47Z</time>
      </trkpt>
      <trkpt lat="49.75523" lon="1.39095">
        <ele>68</ele>
        <time>2011-02-25T02:27:56Z</time>
      </trkpt>
      <trkpt lat="49.75553" lon="1.39037">
        <ele>68</ele>
        <time>2011-02-25T02:28:03Z</time>
      </trkpt>
      <trkpt lat="49.75588" lon="1.38968">
        <ele>67</ele>
        <time>2011-02-25T02:28:10Z</time>
      </trkpt>
      <trkpt lat="49.75628" lon="1.38891">
        <ele>67</ele>
        <time>2011-02-25T02:28:19Z</time>
      </trkpt>
      <trkpt lat="49.75652" lon="1.38851">
        <ele>67</ele>
        <time>2011-02-25T02:28:24Z</time>
      </trkpt>
      <trkpt lat="49.75706" lon="1.38733">
        <ele>67</ele>
        <time>2011-02-25T02:28:36Z</time>
      </trkpt>
      <trkpt lat="49.75732" lon="1.38673">
        <ele>67</ele>
        <time>2011-02-25T02:28:42Z</time>
      </trkpt>
      <trkpt lat="49.75771" lon="1.38611">
        <ele>67</ele>
        <time>2011-02-25T02:28:50Z</time>
      </trkpt>
      <trkpt lat="49.75794" lon="1.38554">
        <ele>65</ele>
        <time>2011-02-25T02:28:56Z</time>
      </trkpt>
      <trkpt lat="49.7584" lon="1.38461">
        <ele>64</ele>
        <time>2011-02-25T02:29:06Z</time>
      </trkpt>
      <trkpt lat="49.75888" lon="1.38348">
        <ele>63</ele>
        <time>2011-02-25T02:29:17Z</time>
      </trkpt>
      <trkpt lat="49.75948" lon="1.38202">
        <ele>63</ele>
        <time>2011-02-25T02:29:32Z</time>
      </trkpt>
      <trkpt lat="49.75973" lon="1.38147">
        <ele>62</ele>
        <time>2011-02-25T02:29:38Z</time>
      </trkpt>
      <trkpt lat="49.75995" lon="1.38099">
        <ele>62</ele>
        <time>2011-02-25T02:29:43Z</time>
      </trkpt>
      <trkpt lat="49.76021" lon="1.38051">
        <ele>62</ele>
        <time>2011-02-25T02:29:49Z</time>
      </trkpt>
      <trkpt lat="49.7606" lon="1.37982">
        <ele>61</ele>
        <time>2011-02-25T02:29:57Z</time>
      </trkpt>
      <trkpt lat="49.76086" lon="1.37941">
        <ele>61</ele>
        <time>2011-02-25T02:30:02Z</time>
      </trkpt>
      <trkpt lat="49.7612" lon="1.37901">
        <ele>61</ele>
        <time>2011-02-25T02:30:07Z</time>
      </trkpt>
      <trkpt lat="49.76166" lon="1.37854">
        <ele>61</ele>
        <time>2011-02-25T02:30:15Z</time>
      </trkpt>
      <trkpt lat="49.76177" lon="1.37843">
        <ele>61</ele>
        <time>2011-02-25T02:30:16Z</time>
      </trkpt>
      <trkpt lat="49.76261" lon="1.37776">
        <ele>61</ele>
        <time>2011-02-25T02:30:29Z</time>
      </trkpt>
      <trkpt lat="49.76361" lon="1.37719">
        <ele>61</ele>
        <time>2011-02-25T02:30:43Z</time>
      </trkpt>
      <trkpt lat="49.76426" lon="1.37688">
        <ele>61</ele>
        <time>2011-02-25T02:30:53Z</time>
      </trkpt>
      <trkpt lat="49.76488" lon="1.37645">
        <ele>62</ele>
        <time>2011-02-25T02:31:04Z</time>
      </trkpt>
      <trkpt lat="49.76551" lon="1.37594">
        <ele>62</ele>
        <time>2011-02-25T02:31:15Z</time>
      </trkpt>
      <trkpt lat="49.76596" lon="1.37546">
        <ele>63</ele>
        <time>2011-02-25T02:31:23Z</time>
      </trkpt>
      <trkpt lat="49.76624" lon="1.37515">
        <ele>63</ele>
        <time>2011-02-25T02:31:28Z</time>
      </trkpt>
      <trkpt lat="49.76655" lon="1.3747">
        <ele>63</ele>
        <time>2011-02-25T02:31:35Z</time>
      </trkpt>
      <trkpt lat="49.7668" lon="1.37436">
        <ele>64</ele>
        <time>2011-02-25T02:31:40Z</time>
      </trkpt>
      <trkpt lat="49.76701" lon="1.37389">
        <ele>63</ele>
        <time>2011-02-25T02:31:45Z</time>
      </trkpt>
      <trkpt lat="49.76744" lon="1.37307">
        <ele>63</ele>
        <time>2011-02-25T02:31:54Z</time>
      </trkpt>
      <trkpt lat="49.76777" lon="1.3724">
        <ele>63</ele>
        <time>2011-02-25T02:32:01Z</time>
      </trkpt>
      <trkpt lat="49.76812" lon="1.37171">
        <ele>63</ele>
        <time>2011-02-25T02:32:09Z</time>
      </trkpt>
      <trkpt lat="49.76863" lon="1.37068">
        <ele>65</ele>
        <time>2011-02-25T02:32:25Z</time>
      </trkpt>
      <trkpt lat="49.76936" lon="1.36915">
        <ele>68</ele>
        <time>2011-02-25T02:32:49Z</time>
      </trkpt>
      <trkpt lat="49.77009" lon="1.36762">
        <ele>68</ele>
        <time>2011-02-25T02:33:05Z</time>
      </trkpt>
      <trkpt lat="49.77072" lon="1.36632">
        <ele>68</ele>
        <time>2011-02-25T02:33:19Z</time>
      </trkpt>
      <trkpt lat="49.77118" lon="1.36534">
        <ele>68</ele>
        <time>2011-02-25T02:33:29Z</time>
      </trkpt>
      <trkpt lat="49.77154" lon="1.36463">
        <ele>68</ele>
        <time>2011-02-25T02:33:37Z</time>
      </trkpt>
      <trkpt lat="49.77196" lon="1.36384">
        <ele>68</ele>
        <time>2011-02-25T02:33:46Z</time>
      </trkpt>
      <trkpt lat="49.77227" lon="1.36321">
        <ele>68</ele>
        <time>2011-02-25T02:33:53Z</time>
      </trkpt>
      <trkpt lat="49.77265" lon="1.36228">
        <ele>68</ele>
        <time>2011-02-25T02:34:02Z</time>
      </trkpt>
      <trkpt lat="49.77301" lon="1.36137">
        <ele>68</ele>
        <time>2011-02-25T02:34:12Z</time>
      </trkpt>
      <trkpt lat="49.77349" lon="1.36022">
        <ele>67</ele>
        <time>2011-02-25T02:34:23Z</time>
      </trkpt>
      <trkpt lat="49.77418" lon="1.35855">
        <ele>67</ele>
        <time>2011-02-25T02:34:40Z</time>
      </trkpt>
      <trkpt lat="49.77457" lon="1.35757">
        <ele>65</ele>
        <time>2011-02-25T02:34:50Z</time>
      </trkpt>
      <trkpt lat="49.77457" lon="1.35757">
        <ele>65</ele>
        <time>2011-02-25T02:34:51Z</time>
      </trkpt>
      <trkpt lat="49.77478" lon="1.35704">
        <ele>65</ele>
        <time>2011-02-25T02:34:57Z</time>
      </trkpt>
      <trkpt lat="49.7752" lon="1.35601">
        <ele>65</ele>
        <time>2011-02-25T02:35:07Z</time>
      </trkpt>
      <trkpt lat="49.77551" lon="1.35529">
        <ele>65</ele>
        <time>2011-02-25T02:35:16Z</time>
      </trkpt>
      <trkpt lat="49.77599" lon="1.35431">
        <ele>66</ele>
        <time>2011-02-25T02:35:28Z</time>
      </trkpt>
      <trkpt lat="49.77647" lon="1.35345">
        <ele>65</ele>
        <time>2011-02-25T02:35:38Z</time>
      </trkpt>
      <trkpt lat="49.77713" lon="1.35206">
        <ele>64</ele>
        <time>2011-02-25T02:35:52Z</time>
      </trkpt>
      <trkpt lat="49.77766" lon="1.35101">
        <ele>64</ele>
        <time>2011-02-25T02:36:04Z</time>
      </trkpt>
      <trkpt lat="49.77802" lon="1.35032">
        <ele>64</ele>
        <time>2011-02-25T02:36:12Z</time>
      </trkpt>
      <trkpt lat="49.77857" lon="1.34919">
        <ele>64</ele>
        <time>2011-02-25T02:36:24Z</time>
      </trkpt>
      <trkpt lat="49.77951" lon="1.34728">
        <ele>65</ele>
        <time>2011-02-25T02:36:47Z</time>
      </trkpt>
      <trkpt lat="49.78021" lon="1.34632">
        <ele>65</ele>
        <time>2011-02-25T02:36:59Z</time>
      </trkpt>
      <trkpt lat="49.78087" lon="1.34544">
        <ele>65</ele>
        <time>2011-02-25T02:37:11Z</time>
      </trkpt>
      <trkpt lat="49.78135" lon="1.34484">
        <ele>65</ele>
        <time>2011-02-25T02:37:19Z</time>
      </trkpt>
      <trkpt lat="49.78223" lon="1.34369">
        <ele>65</ele>
        <time>2011-02-25T02:37:35Z</time>
      </trkpt>
      <trkpt lat="49.78307" lon="1.34273">
        <ele>65</ele>
        <time>2011-02-25T02:37:49Z</time>
      </trkpt>
      <trkpt lat="49.78379" lon="1.34177">
        <ele>64</ele>
        <time>2011-02-25T02:38:01Z</time>
      </trkpt>
      <trkpt lat="49.78426" lon="1.34115">
        <ele>62</ele>
        <time>2011-02-25T02:38:10Z</time>
      </trkpt>
      <trkpt lat="49.78498" lon="1.34029">
        <ele>61</ele>
        <time>2011-02-25T02:38:22Z</time>
      </trkpt>
      <trkpt lat="49.78551" lon="1.33953">
        <ele>59</ele>
        <time>2011-02-25T02:38:31Z</time>
      </trkpt>
      <trkpt lat="49.78646" lon="1.33857">
        <ele>58</ele>
        <time>2011-02-25T02:38:47Z</time>
      </trkpt>
      <trkpt lat="49.78707" lon="1.33799">
        <ele>58</ele>
        <time>2011-02-25T02:38:57Z</time>
      </trkpt>
      <trkpt lat="49.78756" lon="1.33744">
        <ele>59</ele>
        <time>2011-02-25T02:39:07Z</time>
      </trkpt>
      <trkpt lat="49.78795" lon="1.33701">
        <ele>58</ele>
        <time>2011-02-25T02:39:13Z</time>
      </trkpt>
      <trkpt lat="49.78835" lon="1.33641">
        <ele>57</ele>
        <time>2011-02-25T02:39:20Z</time>
      </trkpt>
      <trkpt lat="49.78881" lon="1.33574">
        <ele>57</ele>
        <time>2011-02-25T02:39:29Z</time>
      </trkpt>
      <trkpt lat="49.78922" lon="1.33503">
        <ele>57</ele>
        <time>2011-02-25T02:39:37Z</time>
      </trkpt>
      <trkpt lat="49.78957" lon="1.33438">
        <ele>56</ele>
        <time>2011-02-25T02:39:44Z</time>
      </trkpt>
      <trkpt lat="49.78994" lon="1.33373">
        <ele>56</ele>
        <time>2011-02-25T02:39:52Z</time>
      </trkpt>
      <trkpt lat="49.79019" lon="1.33328">
        <ele>56</ele>
        <time>2011-02-25T02:39:58Z</time>
      </trkpt>
      <trkpt lat="49.79065" lon="1.33242">
        <ele>57</ele>
        <time>2011-02-25T02:40:09Z</time>
      </trkpt>
      <trkpt lat="49.79102" lon="1.3317">
        <ele>55</ele>
        <time>2011-02-25T02:40:17Z</time>
      </trkpt>
      <trkpt lat="49.79122" lon="1.33125">
        <ele>55</ele>
        <time>2011-02-25T02:40:22Z</time>
      </trkpt>
      <trkpt lat="49.79142" lon="1.33065">
        <ele>54</ele>
        <time>2011-02-25T02:40:27Z</time>
      </trkpt>
      <trkpt lat="49.79192" lon="1.32897">
        <ele>52</ele>
        <time>2011-02-25T02:40:43Z</time>
      </trkpt>
      <trkpt lat="49.79227" lon="1.3278">
        <ele>50</ele>
        <time>2011-02-25T02:40:54Z</time>
      </trkpt>
      <trkpt lat="49.79249" lon="1.32713">
        <ele>49</ele>
        <time>2011-02-25T02:41:01Z</time>
      </trkpt>
      <trkpt lat="49.79283" lon="1.32641">
        <ele>49</ele>
        <time>2011-02-25T02:41:09Z</time>
      </trkpt>
      <trkpt lat="49.79306" lon="1.32579">
        <ele>49</ele>
        <time>2011-02-25T02:41:15Z</time>
      </trkpt>
      <trkpt lat="49.79375" lon="1.32424">
        <ele>48</ele>
        <time>2011-02-25T02:41:31Z</time>
      </trkpt>
      <trkpt lat="49.7943" lon="1.32318">
        <ele>48</ele>
        <time>2011-02-25T02:41:43Z</time>
      </trkpt>
      <trkpt lat="49.79509" lon="1.32165">
        <ele>48</ele>
        <time>2011-02-25T02:42:00Z</time>
      </trkpt>
      <trkpt lat="49.79581" lon="1.32017">
        <ele>51</ele>
        <time>2011-02-25T02:42:23Z</time>
      </trkpt>
      <trkpt lat="49.79583" lon="1.32012">
        <ele>51</ele>
        <time>2011-02-25T02:42:23Z</time>
      </trkpt>
      <trkpt lat="49.796" lon="1.31983">
        <ele>51</ele>
        <time>2011-02-25T02:42:27Z</time>
      </trkpt>
      <trkpt lat="49.79652" lon="1.3189">
        <ele>51</ele>
        <time>2011-02-25T02:42:37Z</time>
      </trkpt>
      <trkpt lat="49.79759" lon="1.31718">
        <ele>49</ele>
        <time>2011-02-25T02:42:58Z</time>
      </trkpt>
      <trkpt lat="49.79824" lon="1.31632">
        <ele>49</ele>
        <time>2011-02-25T02:43:09Z</time>
      </trkpt>
      <trkpt lat="49.79895" lon="1.31541">
        <ele>49</ele>
        <time>2011-02-25T02:43:22Z</time>
      </trkpt>
      <trkpt lat="49.7993" lon="1.31476">
        <ele>48</ele>
        <time>2011-02-25T02:43:29Z</time>
      </trkpt>
      <trkpt lat="49.79956" lon="1.31428">
        <ele>48</ele>
        <time>2011-02-25T02:43:34Z</time>
      </trkpt>
      <trkpt lat="49.79977" lon="1.31378">
        <ele>47</ele>
        <time>2011-02-25T02:43:40Z</time>
      </trkpt>
      <trkpt lat="49.8" lon="1.31323">
        <ele>47</ele>
        <time>2011-02-25T02:43:45Z</time>
      </trkpt>
      <trkpt lat="49.80075" lon="1.31112">
        <ele>47</ele>
        <time>2011-02-25T02:44:06Z</time>
      </trkpt>
      <trkpt lat="49.80119" lon="1.30993">
        <ele>48</ele>
        <time>2011-02-25T02:44:21Z</time>
      </trkpt>
      <trkpt lat="49.80157" lon="1.30842">
        <ele>50</ele>
        <time>2011-02-25T02:44:39Z</time>
      </trkpt>
      <trkpt lat="49.80188" lon="1.30691">
        <ele>50</ele>
        <time>2011-02-25T02:44:53Z</time>
      </trkpt>
      <trkpt lat="49.80213" lon="1.30569">
        <ele>46</ele>
        <time>2011-02-25T02:45:04Z</time>
      </trkpt>
      <trkpt lat="49.80216" lon="1.30533">
        <ele>46</ele>
        <time>2011-02-25T02:45:07Z</time>
      </trkpt>
      <trkpt lat="49.80256" lon="1.30294">
        <ele>44</ele>
        <time>2011-02-25T02:45:28Z</time>
      </trkpt>
      <trkpt lat="49.80279" lon="1.3015">
        <ele>43</ele>
        <time>2011-02-25T02:45:41Z</time>
      </trkpt>
      <trkpt lat="49.80361" lon="1.29894">
        <ele>46</ele>
        <time>2011-02-25T02:46:13Z</time>
      </trkpt>
      <trkpt lat="49.80404" lon="1.29806">
        <ele>46</ele>
        <time>2011-02-25T02:46:22Z</time>
      </trkpt>
      <trkpt lat="49.80466" lon="1.29708">
        <ele>46</ele>
        <time>2011-02-25T02:46:34Z</time>
      </trkpt>
      <trkpt lat="49.80536" lon="1.29607">
        <ele>45</ele>
        <time>2011-02-25T02:46:47Z</time>
      </trkpt>
      <trkpt lat="49.8061" lon="1.29512">
        <ele>45</ele>
        <time>2011-02-25T02:47:00Z</time>
      </trkpt>
      <trkpt lat="49.80679" lon="1.2944">
        <ele>44</ele>
        <time>2011-02-25T02:47:11Z</time>
      </trkpt>
      <trkpt lat="49.80767" lon="1.29356">
        <ele>43</ele>
        <time>2011-02-25T02:47:25Z</time>
      </trkpt>
      <trkpt lat="49.80848" lon="1.29277">
        <ele>44</ele>
        <time>2011-02-25T02:47:40Z</time>
      </trkpt>
      <trkpt lat="49.80909" lon="1.29208">
        <ele>43</ele>
        <time>2011-02-25T02:47:50Z</time>
      </trkpt>
      <trkpt lat="49.80977" lon="1.29129">
        <ele>42</ele>
        <time>2011-02-25T02:48:01Z</time>
      </trkpt>
      <trkpt lat="49.81025" lon="1.2905">
        <ele>42</ele>
        <time>2011-02-25T02:48:11Z</time>
      </trkpt>
      <trkpt lat="49.81066" lon="1.28963">
        <ele>42</ele>
        <time>2011-02-25T02:48:20Z</time>
      </trkpt>
      <trkpt lat="49.81108" lon="1.28858">
        <ele>43</ele>
        <time>2011-02-25T02:48:34Z</time>
      </trkpt>
      <trkpt lat="49.81129" lon="1.28795">
        <ele>44</ele>
        <time>2011-02-25T02:48:41Z</time>
      </trkpt>
      <trkpt lat="49.81152" lon="1.28714">
        <ele>44</ele>
        <time>2011-02-25T02:48:50Z</time>
      </trkpt>
      <trkpt lat="49.81224" lon="1.2838">
        <ele>45</ele>
        <time>2011-02-25T02:49:22Z</time>
      </trkpt>
      <trkpt lat="49.81278" lon="1.28176">
        <ele>43</ele>
        <time>2011-02-25T02:49:41Z</time>
      </trkpt>
      <trkpt lat="49.81396" lon="1.27809">
        <ele>40</ele>
        <time>2011-02-25T02:50:16Z</time>
      </trkpt>
      <trkpt lat="49.81447" lon="1.27645">
        <ele>38</ele>
        <time>2011-02-25T02:50:32Z</time>
      </trkpt>
      <trkpt lat="49.81476" lon="1.2752">
        <ele>38</ele>
        <time>2011-02-25T02:50:43Z</time>
      </trkpt>
      <trkpt lat="49.81493" lon="1.27382">
        <ele>38</ele>
        <time>2011-02-25T02:50:55Z</time>
      </trkpt>
      <trkpt lat="49.81519" lon="1.27128">
        <ele>38</ele>
        <time>2011-02-25T02:51:18Z</time>
      </trkpt>
      <trkpt lat="49.81557" lon="1.26792">
        <ele>39</ele>
        <time>2011-02-25T02:51:49Z</time>
      </trkpt>
      <trkpt lat="49.81577" lon="1.26629">
        <ele>37</ele>
        <time>2011-02-25T02:52:04Z</time>
      </trkpt>
      <trkpt lat="49.81606" lon="1.26489">
        <ele>36</ele>
        <time>2011-02-25T02:52:16Z</time>
      </trkpt>
      <trkpt lat="49.81642" lon="1.2638">
        <ele>36</ele>
        <time>2011-02-25T02:52:29Z</time>
      </trkpt>
      <trkpt lat="49.81651" lon="1.26359">
        <ele>37</ele>
        <time>2011-02-25T02:52:31Z</time>
      </trkpt>
      <trkpt lat="49.81691" lon="1.26281">
        <ele>36</ele>
        <time>2011-02-25T02:52:40Z</time>
      </trkpt>
      <trkpt lat="49.81756" lon="1.2616">
        <ele>35</ele>
        <time>2011-02-25T02:52:54Z</time>
      </trkpt>
      <trkpt lat="49.81948" lon="1.25817">
        <ele>36</ele>
        <time>2011-02-25T02:53:35Z</time>
      </trkpt>
      <trkpt lat="49.82014" lon="1.25696">
        <ele>36</ele>
        <time>2011-02-25T02:53:49Z</time>
      </trkpt>
      <trkpt lat="49.82074" lon="1.25596">
        <ele>35</ele>
        <time>2011-02-25T02:54:01Z</time>
      </trkpt>
      <trkpt lat="49.82179" lon="1.25445">
        <ele>34</ele>
        <time>2011-02-25T02:54:20Z</time>
      </trkpt>
      <trkpt lat="49.82283" lon="1.25311">
        <ele>32</ele>
        <time>2011-02-25T02:54:38Z</time>
      </trkpt>
      <trkpt lat="49.8238" lon="1.25182">
        <ele>33</ele>
        <time>2011-02-25T02:54:57Z</time>
      </trkpt>
      <trkpt lat="49.82433" lon="1.25111">
        <ele>32</ele>
        <time>2011-02-25T02:55:07Z</time>
      </trkpt>
      <trkpt lat="49.8248" lon="1.25038">
        <ele>32</ele>
        <time>2011-02-25T02:55:15Z</time>
      </trkpt>
      <trkpt lat="49.82529" lon="1.24959">
        <ele>32</ele>
        <time>2011-02-25T02:55:25Z</time>
      </trkpt>
      <trkpt lat="49.82597" lon="1.24834">
        <ele>32</ele>
        <time>2011-02-25T02:55:39Z</time>
      </trkpt>
      <trkpt lat="49.82651" lon="1.24719">
        <ele>31</ele>
        <time>2011-02-25T02:55:51Z</time>
      </trkpt>
      <trkpt lat="49.82766" lon="1.24493">
        <ele>31</ele>
        <time>2011-02-25T02:56:16Z</time>
      </trkpt>
      <trkpt lat="49.83027" lon="1.23985">
        <ele>31</ele>
        <time>2011-02-25T02:57:12Z</time>
      </trkpt>
      <trkpt lat="49.83257" lon="1.23705">
        <ele>31</ele>
        <time>2011-02-25T02:57:51Z</time>
      </trkpt>
      <trkpt lat="49.83433" lon="1.2351">
        <ele>31</ele>
        <time>2011-02-25T02:58:20Z</time>
      </trkpt>
      <trkpt lat="49.8355" lon="1.23274">
        <ele>29</ele>
        <time>2011-02-25T02:58:46Z</time>
      </trkpt>
      <trkpt lat="49.83735" lon="1.23002">
        <ele>26</ele>
        <time>2011-02-25T02:59:20Z</time>
      </trkpt>
      <trkpt lat="49.83768" lon="1.22959">
        <ele>25</ele>
        <time>2011-02-25T02:59:25Z</time>
      </trkpt>
      <trkpt lat="49.83768" lon="1.22959">
        <ele>25</ele>
        <time>2011-02-25T02:59:26Z</time>
      </trkpt>
      <trkpt lat="49.83865" lon="1.22836">
        <ele>25</ele>
        <time>2011-02-25T02:59:43Z</time>
      </trkpt>
      <trkpt lat="49.84182" lon="1.2249">
        <ele>25</ele>
        <time>2011-02-25T03:00:35Z</time>
      </trkpt>
      <trkpt lat="49.84425" lon="1.22089">
        <ele>24</ele>
        <time>2011-02-25T03:01:22Z</time>
      </trkpt>
      <trkpt lat="49.84628" lon="1.21816">
        <ele>23</ele>
        <time>2011-02-25T03:01:58Z</time>
      </trkpt>
      <trkpt lat="49.84872" lon="1.21577">
        <ele>23</ele>
        <time>2011-02-25T03:02:37Z</time>
      </trkpt>
      <trkpt lat="49.8517" lon="1.21238">
        <ele>22</ele>
        <time>2011-02-25T03:03:26Z</time>
      </trkpt>
      <trkpt lat="49.85605" lon="1.20804">
        <ele>24</ele>
        <time>2011-02-25T03:04:40Z</time>
      </trkpt>
      <trkpt lat="49.85821" lon="1.20509">
        <ele>23</ele>
        <time>2011-02-25T03:05:19Z</time>
      </trkpt>
      <trkpt lat="49.85902" lon="1.20309">
        <ele>23</ele>
        <time>2011-02-25T03:05:39Z</time>
      </trkpt>
      <trkpt lat="49.86036" lon="1.2001">
        <ele>24</ele>
        <time>2011-02-25T03:06:13Z</time>
      </trkpt>
      <trkpt lat="49.86106" lon="1.19796">
        <ele>24</ele>
        <time>2011-02-25T03:06:33Z</time>
      </trkpt>
      <trkpt lat="49.86172" lon="1.19498">
        <ele>19</ele>
        <time>2011-02-25T03:07:00Z</time>
      </trkpt>
      <trkpt lat="49.86363" lon="1.19025">
        <ele>17</ele>
        <time>2011-02-25T03:07:49Z</time>
      </trkpt>
      <trkpt lat="49.86586" lon="1.18309">
        <ele>14</ele>
        <time>2011-02-25T03:08:57Z</time>
      </trkpt>
      <trkpt lat="49.86708" lon="1.17957">
        <ele>15</ele>
        <time>2011-02-25T03:09:34Z</time>
      </trkpt>
      <trkpt lat="49.86818" lon="1.17669">
        <ele>18</ele>
        <time>2011-02-25T03:10:10Z</time>
      </trkpt>
      <trkpt lat="49.8689" lon="1.17429">
        <ele>16</ele>
        <time>2011-02-25T03:10:33Z</time>
      </trkpt>
      <trkpt lat="49.8697" lon="1.17128">
        <ele>14</ele>
        <time>2011-02-25T03:11:01Z</time>
      </trkpt>
      <trkpt lat="49.87038" lon="1.16927">
        <ele>16</ele>
        <time>2011-02-25T03:11:25Z</time>
      </trkpt>
      <trkpt lat="49.87097" lon="1.16798">
        <ele>19</ele>
        <time>2011-02-25T03:11:46Z</time>
      </trkpt>
      <trkpt lat="49.87162" lon="1.1669">
        <ele>19</ele>
        <time>2011-02-25T03:11:59Z</time>
      </trkpt>
      <trkpt lat="49.87234" lon="1.16527">
        <ele>17</ele>
        <time>2011-02-25T03:12:16Z</time>
      </trkpt>
      <trkpt lat="49.87305" lon="1.16333">
        <ele>21</ele>
        <time>2011-02-25T03:12:44Z</time>
      </trkpt>
      <trkpt lat="49.87358" lon="1.15968">
        <ele>11</ele>
        <time>2011-02-25T03:13:17Z</time>
      </trkpt>
      <trkpt lat="49.8739" lon="1.15646">
        <ele>8</ele>
        <time>2011-02-25T03:13:45Z</time>
      </trkpt>
      <trkpt lat="49.8751" lon="1.14314">
        <ele>5</ele>
        <time>2011-02-25T03:15:40Z</time>
      </trkpt>
      <trkpt lat="49.87489" lon="1.14322">
        <ele>5</ele>
        <time>2011-02-25T03:15:44Z</time>
      </trkpt>
      <trkpt lat="49.87487" lon="1.14295">
        <ele>5</ele>
        <time>2011-02-25T03:15:47Z</time>
      </trkpt>
      <trkpt lat="49.87502" lon="1.14255">
        <ele>5</ele>
        <time>2011-02-25T03:15:52Z</time>
      </trkpt>
      <trkpt lat="49.87515" lon="1.14218">
        <ele>6</ele>
        <time>2011-02-25T03:15:56Z</time>
      </trkpt>
      <trkpt lat="49.87538" lon="1.14128">
        <ele>7</ele>
        <time>2011-02-25T03:16:06Z</time>
      </trkpt>
      <trkpt lat="49.87555" lon="1.14063">
        <ele>6</ele>
        <time>2011-02-25T03:16:12Z</time>
      </trkpt>
      <trkpt lat="49.87573" lon="1.14018">
        <ele>6</ele>
        <time>2011-02-25T03:16:17Z</time>
      </trkpt>
      <trkpt lat="49.87597" lon="1.13954">
        <ele>6</ele>
        <time>2011-02-25T03:16:23Z</time>
      </trkpt>
      <trkpt lat="49.8762" lon="1.13902">
        <ele>6</ele>
        <time>2011-02-25T03:16:29Z</time>
      </trkpt>
      <trkpt lat="49.87649" lon="1.13848">
        <ele>6</ele>
        <time>2011-02-25T03:16:36Z</time>
      </trkpt>
      <trkpt lat="49.8769" lon="1.13781">
        <ele>7</ele>
        <time>2011-02-25T03:16:45Z</time>
      </trkpt>
      <trkpt lat="49.87732" lon="1.13725">
        <ele>5</ele>
        <time>2011-02-25T03:16:53Z</time>
      </trkpt>
      <trkpt lat="49.87771" lon="1.13675">
        <ele>5</ele>
        <time>2011-02-25T03:16:59Z</time>
      </trkpt>
      <trkpt lat="49.8778" lon="1.13596">
        <ele>4</ele>
        <time>2011-02-25T03:17:06Z</time>
      </trkpt>
      <trkpt lat="49.87901" lon="1.13485">
        <ele>4</ele>
        <time>2011-02-25T03:17:25Z</time>
      </trkpt>
      <trkpt lat="49.87934" lon="1.13454">
        <ele>4</ele>
        <time>2011-02-25T03:17:30Z</time>
      </trkpt>
      <trkpt lat="49.87958" lon="1.13446">
        <ele>4</ele>
        <time>2011-02-25T03:17:33Z</time>
      </trkpt>
      <trkpt lat="49.87998" lon="1.13415">
        <ele>4</ele>
        <time>2011-02-25T03:17:39Z</time>
      </trkpt>
      <trkpt lat="49.87998" lon="1.13415">
        <ele>4</ele>
        <time>2011-02-25T03:17:40Z</time>
      </trkpt>
      <trkpt lat="49.88029" lon="1.13391">
        <ele>4</ele>
        <time>2011-02-25T03:17:46Z</time>
      </trkpt>
      <trkpt lat="49.88068" lon="1.13385">
        <ele>4</ele>
        <time>2011-02-25T03:17:52Z</time>
      </trkpt>
      <trkpt lat="49.88091" lon="1.13372">
        <ele>5</ele>
        <time>2011-02-25T03:17:56Z</time>
      </trkpt>
      <trkpt lat="49.88089" lon="1.13354">
        <ele>5</ele>
        <time>2011-02-25T03:17:58Z</time>
      </trkpt>
      <trkpt lat="49.8806" lon="1.1306">
        <ele>6</ele>
        <time>2011-02-25T03:18:26Z</time>
      </trkpt>
      <trkpt lat="49.88057" lon="1.13026">
        <ele>6</ele>
        <time>2011-02-25T03:18:29Z</time>
      </trkpt>
      <trkpt lat="49.88057" lon="1.12999">
        <ele>6</ele>
        <time>2011-02-25T03:18:32Z</time>
      </trkpt>
      <trkpt lat="49.88087" lon="1.12977">
        <ele>6</ele>
        <time>2011-02-25T03:18:37Z</time>
      </trkpt>
      <trkpt lat="49.88131" lon="1.12942">
        <ele>7</ele>
        <time>2011-02-25T03:18:44Z</time>
      </trkpt>
      <trkpt lat="49.88202" lon="1.12891">
        <ele>8</ele>
        <time>2011-02-25T03:18:58Z</time>
      </trkpt>
      <trkpt lat="49.8824" lon="1.12852">
        <ele>9</ele>
        <time>2011-02-25T03:19:06Z</time>
      </trkpt>
      <trkpt lat="49.88264" lon="1.12826">
        <ele>9</ele>
        <time>2011-02-25T03:19:10Z</time>
      </trkpt>
      <trkpt lat="49.8833" lon="1.12742">
        <ele>10</ele>
        <time>2011-02-25T03:19:23Z</time>
      </trkpt>
      <trkpt lat="49.8834" lon="1.12727">
        <ele>9</ele>
        <time>2011-02-25T03:19:25Z</time>
      </trkpt>
      <trkpt lat="49.88348" lon="1.12714">
        <ele>9</ele>
        <time>2011-02-25T03:19:27Z</time>
      </trkpt>
      <trkpt lat="49.88384" lon="1.12648">
        <ele>8</ele>
        <time>2011-02-25T03:19:34Z</time>
      </trkpt>
      <trkpt lat="49.88401" lon="1.12616">
        <ele>8</ele>
        <time>2011-02-25T03:19:38Z</time>
      </trkpt>
      <trkpt lat="49.88425" lon="1.12571">
        <ele>8</ele>
        <time>2011-02-25T03:19:44Z</time>
      </trkpt>
      <trkpt lat="49.88436" lon="1.12544">
        <ele>8</ele>
        <time>2011-02-25T03:19:47Z</time>
      </trkpt>
      <trkpt lat="49.88475" lon="1.1248">
        <ele>9</ele>
        <time>2011-02-25T03:19:55Z</time>
      </trkpt>
      <trkpt lat="49.88548" lon="1.12392">
        <ele>8</ele>
        <time>2011-02-25T03:20:08Z</time>
      </trkpt>
      <trkpt lat="49.88626" lon="1.12296">
        <ele>7</ele>
        <time>2011-02-25T03:20:21Z</time>
      </trkpt>
      <trkpt lat="49.88752" lon="1.12147">
        <ele>6</ele>
        <time>2011-02-25T03:20:42Z</time>
      </trkpt>
      <trkpt lat="49.88848" lon="1.12039">
        <ele>5</ele>
        <time>2011-02-25T03:20:58Z</time>
      </trkpt>
      <trkpt lat="49.88911" lon="1.11974">
        <ele>5</ele>
        <time>2011-02-25T03:21:09Z</time>
      </trkpt>
      <trkpt lat="49.88986" lon="1.11899">
        <ele>6</ele>
        <time>2011-02-25T03:21:23Z</time>
      </trkpt>
      <trkpt lat="49.89086" lon="1.11815">
        <ele>7</ele>
        <time>2011-02-25T03:21:40Z</time>
      </trkpt>
      <trkpt lat="49.89137" lon="1.11773">
        <ele>8</ele>
        <time>2011-02-25T03:21:51Z</time>
      </trkpt>
      <trkpt lat="49.89146" lon="1.11787">
        <ele>8</ele>
        <time>2011-02-25T03:21:53Z</time>
      </trkpt>
      <trkpt lat="49.89163" lon="1.11777">
        <ele>8</ele>
        <time>2011-02-25T03:21:56Z</time>
      </trkpt>
      <trkpt lat="49.89174" lon="1.11761">
        <ele>9</ele>
        <time>2011-02-25T03:21:59Z</time>
      </trkpt>
      <trkpt lat="49.8917" lon="1.11737">
        <ele>9</ele>
        <time>2011-02-25T03:22:01Z</time>
      </trkpt>
      <trkpt lat="49.89173" lon="1.11717">
        <ele>9</ele>
        <time>2011-02-25T03:22:04Z</time>
      </trkpt>
      <trkpt lat="49.89187" lon="1.11687">
        <ele>9</ele>
        <time>2011-02-25T03:22:07Z</time>
      </trkpt>
      <trkpt lat="49.89217" lon="1.11661">
        <ele>10</ele>
        <time>2011-02-25T03:22:13Z</time>
      </trkpt>
      <trkpt lat="49.89293" lon="1.11625">
        <ele>11</ele>
        <time>2011-02-25T03:22:26Z</time>
      </trkpt>
      <trkpt lat="49.89313" lon="1.11615">
        <ele>11</ele>
        <time>2011-02-25T03:22:29Z</time>
      </trkpt>
      <trkpt lat="49.89377" lon="1.11528">
        <ele>11</ele>
        <time>2011-02-25T03:22:40Z</time>
      </trkpt>
      <trkpt lat="49.89486" lon="1.11338">
        <ele>12</ele>
        <time>2011-02-25T03:23:04Z</time>
      </trkpt>
      <trkpt lat="49.89575" lon="1.11178">
        <ele>12</ele>
        <time>2011-02-25T03:23:23Z</time>
      </trkpt>
      <trkpt lat="49.89629" lon="1.11078">
        <ele>12</ele>
        <time>2011-02-25T03:23:34Z</time>
      </trkpt>
      <trkpt lat="49.89698" lon="1.10909">
        <ele>12</ele>
        <time>2011-02-25T03:23:51Z</time>
      </trkpt>
      <trkpt lat="49.89703" lon="1.10889">
        <ele>12</ele>
        <time>2011-02-25T03:23:53Z</time>
      </trkpt>
      <trkpt lat="49.89741" lon="1.10774">
        <ele>13</ele>
        <time>2011-02-25T03:24:06Z</time>
      </trkpt>
      <trkpt lat="49.89779" lon="1.10682">
        <ele>11</ele>
        <time>2011-02-25T03:24:16Z</time>
      </trkpt>
      <trkpt lat="49.89816" lon="1.10613">
        <ele>10</ele>
        <time>2011-02-25T03:24:23Z</time>
      </trkpt>
      <trkpt lat="49.89861" lon="1.10548">
        <ele>9</ele>
        <time>2011-02-25T03:24:32Z</time>
      </trkpt>
      <trkpt lat="49.89877" lon="1.10522">
        <ele>8</ele>
        <time>2011-02-25T03:24:35Z</time>
      </trkpt>
      <trkpt lat="49.89931" lon="1.10444">
        <ele>8</ele>
        <time>2011-02-25T03:24:45Z</time>
      </trkpt>
      <trkpt lat="49.89982" lon="1.10338">
        <ele>9</ele>
        <time>2011-02-25T03:25:00Z</time>
      </trkpt>
      <trkpt lat="49.90016" lon="1.10249">
        <ele>11</ele>
        <time>2011-02-25T03:25:12Z</time>
      </trkpt>
      <trkpt lat="49.90046" lon="1.1016">
        <ele>12</ele>
        <time>2011-02-25T03:25:24Z</time>
      </trkpt>
      <trkpt lat="49.90128" lon="1.09915">
        <ele>16</ele>
        <time>2011-02-25T03:25:57Z</time>
      </trkpt>
      <trkpt lat="49.90183" lon="1.09794">
        <ele>13</ele>
        <time>2011-02-25T03:26:09Z</time>
      </trkpt>
      <trkpt lat="49.90328" lon="1.09477">
        <ele>10</ele>
        <time>2011-02-25T03:26:43Z</time>
      </trkpt>
      <trkpt lat="49.90361" lon="1.09406">
        <ele>8</ele>
        <time>2011-02-25T03:26:50Z</time>
      </trkpt>
      <trkpt lat="49.90382" lon="1.09376">
        <ele>8</ele>
        <time>2011-02-25T03:26:54Z</time>
      </trkpt>
      <trkpt lat="49.90398" lon="1.09353">
        <ele>8</ele>
        <time>2011-02-25T03:26:57Z</time>
      </trkpt>
      <trkpt lat="49.90414" lon="1.09338">
        <ele>8</ele>
        <time>2011-02-25T03:26:59Z</time>
      </trkpt>
      <trkpt lat="49.90443" lon="1.09311">
        <ele>8</ele>
        <time>2011-02-25T03:27:04Z</time>
      </trkpt>
      <trkpt lat="49.90503" lon="1.09258">
        <ele>8</ele>
        <time>2011-02-25T03:27:13Z</time>
      </trkpt>
      <trkpt lat="49.90561" lon="1.09201">
        <ele>7</ele>
        <time>2011-02-25T03:27:22Z</time>
      </trkpt>
      <trkpt lat="49.9067" lon="1.09039">
        <ele>7</ele>
        <time>2011-02-25T03:27:43Z</time>
      </trkpt>
      <trkpt lat="49.90682" lon="1.0902">
        <ele>7</ele>
        <time>2011-02-25T03:27:45Z</time>
      </trkpt>
      <trkpt lat="49.90857" lon="1.08748">
        <ele>11</ele>
        <time>2011-02-25T03:28:28Z</time>
      </trkpt>
      <trkpt lat="49.90927" lon="1.08638">
        <ele>13</ele>
        <time>2011-02-25T03:28:46Z</time>
      </trkpt>
      <trkpt lat="49.90998" lon="1.08541">
        <ele>11</ele>
        <time>2011-02-25T03:28:58Z</time>
      </trkpt>
      <trkpt lat="49.91006" lon="1.08535">
        <ele>10</ele>
        <time>2011-02-25T03:28:59Z</time>
      </trkpt>
      <trkpt lat="49.91124" lon="1.08404">
        <ele>10</ele>
        <time>2011-02-25T03:29:19Z</time>
      </trkpt>
      <trkpt lat="49.91153" lon="1.08375">
        <ele>10</ele>
        <time>2011-02-25T03:29:23Z</time>
      </trkpt>
      <trkpt lat="49.91301" lon="1.08225">
        <ele>10</ele>
        <time>2011-02-25T03:29:47Z</time>
      </trkpt>
      <trkpt lat="49.91323" lon="1.08202">
        <ele>9</ele>
        <time>2011-02-25T03:29:51Z</time>
      </trkpt>
      <trkpt lat="49.9138" lon="1.08141">
        <ele>8</ele>
        <time>2011-02-25T03:30:00Z</time>
      </trkpt>
      <trkpt lat="49.91424" lon="1.08094">
        <ele>8</ele>
        <time>2011-02-25T03:30:07Z</time>
      </trkpt>
      <trkpt lat="49.91471" lon="1.08046">
        <ele>8</ele>
        <time>2011-02-25T03:30:14Z</time>
      </trkpt>
      <trkpt lat="49.915" lon="1.08018">
        <ele>9</ele>
        <time>2011-02-25T03:30:22Z</time>
      </trkpt>
      <trkpt lat="49.91508" lon="1.08007">
        <ele>9</ele>
        <time>2011-02-25T03:30:25Z</time>
      </trkpt>
      <trkpt lat="49.91532" lon="1.07979">
        <ele>11</ele>
        <time>2011-02-25T03:30:32Z</time>
      </trkpt>
      <trkpt lat="49.91549" lon="1.07959">
        <ele>12</ele>
        <time>2011-02-25T03:30:37Z</time>
      </trkpt>
      <trkpt lat="49.91552" lon="1.07955">
        <ele>12</ele>
        <time>2011-02-25T03:30:38Z</time>
      </trkpt>
      <trkpt lat="49.91591" lon="1.07909">
        <ele>12</ele>
        <time>2011-02-25T03:30:46Z</time>
      </trkpt>
      <trkpt lat="49.91668" lon="1.07816">
        <ele>14</ele>
        <time>2011-02-25T03:31:02Z</time>
      </trkpt>
      <trkpt lat="49.91676" lon="1.07806">
        <ele>14</ele>
        <time>2011-02-25T03:31:03Z</time>
      </trkpt>
      <trkpt lat="49.91745" lon="1.07728">
        <ele>14</ele>
        <time>2011-02-25T03:31:15Z</time>
      </trkpt>
      <trkpt lat="49.91755" lon="1.07717">
        <ele>13</ele>
        <time>2011-02-25T03:31:16Z</time>
      </trkpt>
      <trkpt lat="49.91758" lon="1.07714">
        <ele>13</ele>
        <time>2011-02-25T03:31:17Z</time>
      </trkpt>
      <trkpt lat="49.91789" lon="1.07688">
        <ele>13</ele>
        <time>2011-02-25T03:31:21Z</time>
      </trkpt>
      <trkpt lat="49.91906" lon="1.07587">
        <ele>13</ele>
        <time>2011-02-25T03:31:39Z</time>
      </trkpt>
      <trkpt lat="49.91941" lon="1.07555">
        <ele>13</ele>
        <time>2011-02-25T03:31:46Z</time>
      </trkpt>
      <trkpt lat="49.91959" lon="1.07539">
        <ele>13</ele>
        <time>2011-02-25T03:31:50Z</time>
      </trkpt>
      <trkpt lat="49.92026" lon="1.07481">
        <ele>15</ele>
        <time>2011-02-25T03:32:03Z</time>
      </trkpt>
      <trkpt lat="49.92101" lon="1.07416">
        <ele>14</ele>
        <time>2011-02-25T03:32:14Z</time>
      </trkpt>
      <trkpt lat="49.92178" lon="1.07369">
        <ele>14</ele>
        <time>2011-02-25T03:32:25Z</time>
      </trkpt>
      <trkpt lat="49.92266" lon="1.07316">
        <ele>13</ele>
        <time>2011-02-25T03:32:38Z</time>
      </trkpt>
      <trkpt lat="49.9229" lon="1.0731">
        <ele>13</ele>
        <time>2011-02-25T03:32:41Z</time>
      </trkpt>
      <trkpt lat="49.92317" lon="1.07313">
        <ele>13</ele>
        <time>2011-02-25T03:32:45Z</time>
      </trkpt>
      <trkpt lat="49.9234" lon="1.0733">
        <ele>13</ele>
        <time>2011-02-25T03:32:48Z</time>
      </trkpt>
      <trkpt lat="49.92337" lon="1.0726">
        <ele>13</ele>
        <time>2011-02-25T03:32:54Z</time>
      </trkpt>
      <trkpt lat="49.9236" lon="1.0724">
        <ele>13</ele>
        <time>2011-02-25T03:32:57Z</time>
      </trkpt>
      <trkpt lat="49.9235" lon="1.0723">
        <ele>13</ele>
        <time>2011-02-25T03:33:01Z</time>
      </trkpt>
      <trkpt lat="49.92337" lon="1.07216">
        <ele>14</ele>
        <time>2011-02-25T03:33:05Z</time>
      </trkpt>
      <trkpt lat="49.92298" lon="1.07162">
        <ele>17</ele>
        <time>2011-02-25T03:33:20Z</time>
      </trkpt>
      <trkpt lat="49.92329" lon="1.07101">
        <ele>21</ele>
        <time>2011-02-25T03:33:34Z</time>
      </trkpt>
      <trkpt lat="49.92353" lon="1.07061">
        <ele>26</ele>
        <time>2011-02-25T03:33:52Z</time>
      </trkpt>
      <trkpt lat="49.92363" lon="1.07045">
        <ele>28</ele>
        <time>2011-02-25T03:33:59Z</time>
      </trkpt>
      <trkpt lat="49.92369" lon="1.07041">
        <ele>29</ele>
        <time>2011-02-25T03:34:03Z</time>
      </trkpt>
      <trkpt lat="49.92335" lon="1.06976">
        <ele>38</ele>
        <time>2011-02-25T03:34:30Z</time>
      </trkpt>
      <trkpt lat="49.92371" lon="1.06938">
        <ele>45</ele>
        <time>2011-02-25T03:34:52Z</time>
      </trkpt>
      <trkpt lat="49.92342" lon="1.06877">
        <ele>48</ele>
        <time>2011-02-25T03:35:06Z</time>
      </trkpt>
      <trkpt lat="49.92303" lon="1.06799">
        <ele>52</ele>
        <time>2011-02-25T03:35:24Z</time>
      </trkpt>
      <trkpt lat="49.92264" lon="1.06721">
        <ele>55</ele>
        <time>2011-02-25T03:35:40Z</time>
      </trkpt>
      <trkpt lat="49.92241" lon="1.06674">
        <ele>57</ele>
        <time>2011-02-25T03:35:50Z</time>
      </trkpt>
      <trkpt lat="49.92255" lon="1.06659">
        <ele>57</ele>
        <time>2011-02-25T03:35:53Z</time>
      </trkpt>
      <trkpt lat="49.92273" lon="1.06631">
        <ele>58</ele>
        <time>2011-02-25T03:35:59Z</time>
      </trkpt>
      <trkpt lat="49.92282" lon="1.06606">
        <ele>59</ele>
        <time>2011-02-25T03:36:03Z</time>
      </trkpt>
      <trkpt lat="49.9229" lon="1.0658">
        <ele>59</ele>
        <time>2011-02-25T03:36:07Z</time>
      </trkpt>
      <trkpt lat="49.92306" lon="1.06535">
        <ele>61</ele>
        <time>2011-02-25T03:36:14Z</time>
      </trkpt>
      <trkpt lat="49.9234" lon="1.06451">
        <ele>62</ele>
        <time>2011-02-25T03:36:27Z</time>
      </trkpt>
      <trkpt lat="49.92367" lon="1.06384">
        <ele>64</ele>
        <time>2011-02-25T03:36:37Z</time>
      </trkpt>
      <trkpt lat="49.92373" lon="1.06354">
        <ele>65</ele>
        <time>2011-02-25T03:36:43Z</time>
      </trkpt>
      <trkpt lat="49.92375" lon="1.06324">
        <ele>66</ele>
        <time>2011-02-25T03:36:48Z</time>
      </trkpt>
      <trkpt lat="49.9236" lon="1.06222">
        <ele>71</ele>
        <time>2011-02-25T03:37:08Z</time>
      </trkpt>
      <trkpt lat="49.92339" lon="1.06103">
        <ele>73</ele>
        <time>2011-02-25T03:37:23Z</time>
      </trkpt>
    </trkseg>
  </trk>
</gpx>